Observation data for Weinert on 08/14/2019      Previous  Date  Next       Current Mesonet Observations  Soil Data  Daily Summary Page  Observations in Plain Language
KWE1 140500Z 06010KT 29/20 A3002 RMK A01 T02920203  RH  059%=      5-min Rain = 0
KWE1 140501Z 07010KT 29/20 A3002 RMK A01 T02920203  RH  059%=      5-min Rain = 0
KWE1 140502Z 07010KT 29/20 A3002 RMK A01 T02920203  RH  059%=      5-min Rain = 0
KWE1 140503Z 06008KT 29/20 A3002 RMK A01 T02920203  RH  059%=      5-min Rain = 0
KWE1 140504Z 06008KT 29/20 A3002 RMK A01 T02910203  RH  059%=      5-min Rain = 0
KWE1 140505Z 06007KT 29/20 A3002 RMK A01 T02910203  RH  059%=      5-min Rain = 0
KWE1 140506Z 05007KT 29/20 A3002 RMK A01 T02900203  RH  059%=      5-min Rain = 0
KWE1 140507Z 05007KT 29/20 A3002 RMK A01 T02900204  RH  060%=      5-min Rain = 0
KWE1 140508Z 06007KT 29/20 A3002 RMK A01 T02890203  RH  060%=      5-min Rain = 0
KWE1 140509Z 05005KT 29/20 A3002 RMK A01 T02890204  RH  060%=      5-min Rain = 0
KWE1 140510Z 05006KT 29/20 A3002 RMK A01 T02880204  RH  060%=      5-min Rain = 0
KWE1 140527Z 06008KT 28/21 A3002 RMK A01 T02830208  RH  064%=      5-min Rain = 0
KWE1 140528Z 05006KT 28/21 A3002 RMK A01 T02830208  RH  064%=      5-min Rain = 0
KWE1 140529Z 06005KT 28/21 A3002 RMK A01 T02830208  RH  064%=      5-min Rain = 0
KWE1 140530Z 06006KT 28/21 A3002 RMK A01 T02820208  RH  064%=      5-min Rain = 0
KWE1 140531Z 05006KT 28/21 A3002 RMK A01 T02820208  RH  064%=      5-min Rain = 0
KWE1 140532Z 05006KT 28/21 A3002 RMK A01 T02820208  RH  064%=      5-min Rain = 0
KWE1 140533Z 05006KT 28/21 A3002 RMK A01 T02820208  RH  064%=      5-min Rain = 0
KWE1 140534Z 05005KT 28/21 A3002 RMK A01 T02820208  RH  064%=      5-min Rain = 0
KWE1 140535Z 04005KT 28/21 A3002 RMK A01 T02820209  RH  064%=      5-min Rain = 0
KWE1 140536Z 05005KT 28/21 A3002 RMK A01 T02810209  RH  065%=      5-min Rain = 0
KWE1 140537Z 05004KT 28/21 A3002 RMK A01 T02800208  RH  065%=      5-min Rain = 0
KWE1 140538Z 04005KT 28/21 A3002 RMK A01 T02800209  RH  065%=      5-min Rain = 0
KWE1 140539Z 05008KT 28/21 A3002 RMK A01 T02800208  RH  065%=      5-min Rain = 0
KWE1 140540Z 04007KT 28/21 A3002 RMK A01 T02800208  RH  065%=      5-min Rain = 0
KWE1 140541Z 05007KT 28/21 A3002 RMK A01 T02800208  RH  065%=      5-min Rain = 0
KWE1 140542Z 05006KT 28/21 A3002 RMK A01 T02800208  RH  065%=      5-min Rain = 0
KWE1 140543Z 04004KT 28/21 A3002 RMK A01 T02800208  RH  065%=      5-min Rain = 0
KWE1 140544Z 04005KT 28/21 A3002 RMK A01 T02800208  RH  065%=      5-min Rain = 0
KWE1 140545Z 04006KT 28/21 A3002 RMK A01 T02800208  RH  065%=      5-min Rain = 0
KWE1 140546Z 05006KT 28/21 A3002 RMK A01 T02800208  RH  065%=      5-min Rain = 0
KWE1 140547Z 05006KT 28/21 A3002 RMK A01 T02790208  RH  065%=      5-min Rain = 0
KWE1 140548Z 04006KT 28/21 A3002 RMK A01 T02790208  RH  065%=      5-min Rain = 0
KWE1 140549Z 05005KT 28/21 A3002 RMK A01 T02790208  RH  065%=      5-min Rain = 0
KWE1 140550Z 05007KT 28/21 A3002 RMK A01 T02790208  RH  065%=      5-min Rain = 0
KWE1 140551Z 05006KT 28/21 A3002 RMK A01 T02790208  RH  065%=      5-min Rain = 0
KWE1 140552Z 05006KT 28/21 A3002 RMK A01 T02790208  RH  066%=      5-min Rain = 0
KWE1 140553Z 05006KT 28/21 A3002 RMK A01 T02790209  RH  066%=      5-min Rain = 0
KWE1 140554Z 05006KT 28/21 A3002 RMK A01 T02790208  RH  066%=      5-min Rain = 0
KWE1 140555Z 05005KT 28/21 A3002 RMK A01 T02790208  RH  065%=      5-min Rain = 0
KWE1 140556Z 06003KT 28/21 A3002 RMK A01 T02790209  RH  065%=      5-min Rain = 0
KWE1 140557Z 06004KT 28/21 A3002 RMK A01 T02790208  RH  066%=      5-min Rain = 0
KWE1 140558Z 06005KT 28/21 A3002 RMK A01 T02780208  RH  066%=      5-min Rain = 0
KWE1 140559Z 06005KT 28/21 A3002 RMK A01 T02770208  RH  066%=      5-min Rain = 0
KWE1 140600Z 06005KT 28/21 A3002 RMK A01 T02770208  RH  066%=      5-min Rain = 0
KWE1 140601Z 06006KT 28/21 A3002 RMK A01 T02770208  RH  066%=      5-min Rain = 0
KWE1 140602Z 06005KT 28/21 A3002 RMK A01 T02760208  RH  066%=      5-min Rain = 0
KWE1 140603Z 06006KT 28/21 A3002 RMK A01 T02760208  RH  066%=      5-min Rain = 0
KWE1 140604Z 06007KT 28/21 A3002 RMK A01 T02760207  RH  066%=      5-min Rain = 0
KWE1 140605Z 06007KT 28/21 A3002 RMK A01 T02760207  RH  066%=      5-min Rain = 0
KWE1 140606Z 06006KT 28/21 A3002 RMK A01 T02760207  RH  066%=      5-min Rain = 0
KWE1 140607Z 06005KT 28/21 A3002 RMK A01 T02760207  RH  066%=      5-min Rain = 0
KWE1 140608Z 06005KT 28/21 A3002 RMK A01 T02760207  RH  066%=      5-min Rain = 0
KWE1 140609Z 05005KT 28/21 A3002 RMK A01 T02760207  RH  066%=      5-min Rain = 0
KWE1 140610Z 05004KT 28/21 A3002 RMK A01 T02750207  RH  066%=      5-min Rain = 0
KWE1 140611Z 04005KT 28/21 A3002 RMK A01 T02750207  RH  066%=      5-min Rain = 0
KWE1 140612Z 04005KT 28/21 A3002 RMK A01 T02750207  RH  067%=      5-min Rain = 0
KWE1 140613Z 04006KT 27/21 A3002 RMK A01 T02740206  RH  067%=      5-min Rain = 0
KWE1 140614Z 04005KT 27/21 A3002 RMK A01 T02740206  RH  067%=      5-min Rain = 0
KWE1 140615Z 03005KT 27/21 A3002 RMK A01 T02740206  RH  066%=      5-min Rain = 0
KWE1 140616Z 03006KT 27/21 A3002 RMK A01 T02740207  RH  067%=      5-min Rain = 0
KWE1 140617Z 03005KT 27/21 A3002 RMK A01 T02730206  RH  067%=      5-min Rain = 0
KWE1 140618Z 04005KT 27/21 A3002 RMK A01 T02720206  RH  067%=      5-min Rain = 0
KWE1 140619Z 03005KT 27/21 A3002 RMK A01 T02710206  RH  067%=      5-min Rain = 0
KWE1 140620Z 03005KT 27/21 A3002 RMK A01 T02710205  RH  067%=      5-min Rain = 0
KWE1 140621Z 03006KT 27/21 A3002 RMK A01 T02710205  RH  067%=      5-min Rain = 0
KWE1 140622Z 04006KT 27/21 A3003 RMK A01 T02700205  RH  067%=      5-min Rain = 0
KWE1 140623Z 03006KT 27/21 A3003 RMK A01 T02700205  RH  067%=      5-min Rain = 0
KWE1 140624Z 04005KT 27/20 A3003 RMK A01 T02700204  RH  067%=      5-min Rain = 0
KWE1 140625Z 03006KT 27/20 A3003 RMK A01 T02700204  RH  067%=      5-min Rain = 0
KWE1 140626Z 04006KT 27/20 A3003 RMK A01 T02700204  RH  067%=      5-min Rain = 0
KWE1 140627Z 04005KT 27/20 A3003 RMK A01 T02710204  RH  067%=      5-min Rain = 0
KWE1 140628Z 03007KT 27/20 A3003 RMK A01 T02710204  RH  067%=      5-min Rain = 0
KWE1 140629Z 04005KT 27/20 A3003 RMK A01 T02710204  RH  067%=      5-min Rain = 0
KWE1 140630Z 04006KT 27/20 A3003 RMK A01 T02710204  RH  066%=      5-min Rain = 0
KWE1 140631Z 04006KT 27/20 A3003 RMK A01 T02710204  RH  066%=      5-min Rain = 0
KWE1 140632Z 04005KT 27/20 A3003 RMK A01 T02710203  RH  066%=      5-min Rain = 0
KWE1 140633Z 05005KT 27/20 A3003 RMK A01 T02720203  RH  066%=      5-min Rain = 0
KWE1 140634Z 05006KT 27/20 A3003 RMK A01 T02720203  RH  066%=      5-min Rain = 0
KWE1 140635Z 04005KT 27/20 A3003 RMK A01 T02730204  RH  066%=      5-min Rain = 0
KWE1 140636Z 04006KT 27/20 A3003 RMK A01 T02740203  RH  065%=      5-min Rain = 0
KWE1 140637Z 04005KT 27/20 A3003 RMK A01 T02740204  RH  065%=      5-min Rain = 0
KWE1 140638Z 04005KT 27/20 A3003 RMK A01 T02740203  RH  065%=      5-min Rain = 0
KWE1 140639Z 05008KT 27/20 A3003 RMK A01 T02740203  RH  065%=      5-min Rain = 0
KWE1 140640Z 04008KT 27/20 A3003 RMK A01 T02740203  RH  065%=      5-min Rain = 0
KWE1 140641Z 04009KT 28/20 A3003 RMK A01 T02750203  RH  065%=      5-min Rain = 0
KWE1 140642Z 04006KT 28/20 A3003 RMK A01 T02750203  RH  065%=      5-min Rain = 0
KWE1 140643Z 04006KT 28/20 A3003 RMK A01 T02760203  RH  065%=      5-min Rain = 0
KWE1 140644Z 04006KT 28/20 A3003 RMK A01 T02750203  RH  065%=      5-min Rain = 0
KWE1 140645Z 04008KT 28/20 A3003 RMK A01 T02750203  RH  065%=      5-min Rain = 0
KWE1 140646Z 05006KT 28/20 A3003 RMK A01 T02750203  RH  065%=      5-min Rain = 0
KWE1 140647Z 04006KT 28/20 A3003 RMK A01 T02750203  RH  065%=      5-min Rain = 0
KWE1 140648Z 04006KT 27/20 A3003 RMK A01 T02740203  RH  065%=      5-min Rain = 0
KWE1 140649Z 04005KT 27/20 A3003 RMK A01 T02740203  RH  065%=      5-min Rain = 0
KWE1 140650Z 04007KT 27/20 A3003 RMK A01 T02730203  RH  065%=      5-min Rain = 0
KWE1 140651Z 04008KT 27/20 A3003 RMK A01 T02730202  RH  065%=      5-min Rain = 0
KWE1 140652Z 04006KT 27/20 A3003 RMK A01 T02730202  RH  065%=      5-min Rain = 0
KWE1 140653Z 04006KT 27/20 A3003 RMK A01 T02740203  RH  065%=      5-min Rain = 0
KWE1 140654Z 04006KT 27/20 A3003 RMK A01 T02730203  RH  065%=      5-min Rain = 0
KWE1 140655Z 04006KT 27/20 A3003 RMK A01 T02730203  RH  066%=      5-min Rain = 0
KWE1 140656Z 04007KT 27/20 A3003 RMK A01 T02720203  RH  066%=      5-min Rain = 0
KWE1 140657Z 04007KT 27/20 A3003 RMK A01 T02720202  RH  066%=      5-min Rain = 0
KWE1 140658Z 03007KT 27/20 A3003 RMK A01 T02720203  RH  066%=      5-min Rain = 0
KWE1 140659Z 04008KT 27/20 A3003 RMK A01 T02710202  RH  066%=      5-min Rain = 0
KWE1 140700Z 04008KT 27/20 A3003 RMK A01 T02710203  RH  066%=      5-min Rain = 0
KWE1 140701Z 04008KT 27/20 A3003 RMK A01 T02710202  RH  066%=      5-min Rain = 0
KWE1 140702Z 05007KT 27/20 A3003 RMK A01 T02710202  RH  066%=      5-min Rain = 0
KWE1 140703Z 05007KT 27/20 A3003 RMK A01 T02710202  RH  066%=      5-min Rain = 0
KWE1 140704Z 05008KT 27/20 A3003 RMK A01 T02710202  RH  066%=      5-min Rain = 0
KWE1 140705Z 04008KT 27/20 A3003 RMK A01 T02710202  RH  066%=      5-min Rain = 0
KWE1 140706Z 03009KT 27/20 A3003 RMK A01 T02710201  RH  065%=      5-min Rain = 0
KWE1 140707Z 04008KT 27/20 A3003 RMK A01 T02720202  RH  065%=      5-min Rain = 0
KWE1 140708Z 04008KT 27/20 A3003 RMK A01 T02720201  RH  065%=      5-min Rain = 0
KWE1 140709Z 04010KT 27/20 A3003 RMK A01 T02720201  RH  065%=      5-min Rain = 0
KWE1 140710Z 06009KT 27/20 A3003 RMK A01 T02720202  RH  065%=      5-min Rain = 0
KWE1 140711Z 05007KT 27/20 A3003 RMK A01 T02720201  RH  065%=      5-min Rain = 0
KWE1 140712Z 05008KT 27/20 A3003 RMK A01 T02720202  RH  065%=      5-min Rain = 0
KWE1 140713Z 05006KT 27/20 A3003 RMK A01 T02710201  RH  065%=      5-min Rain = 0
KWE1 140714Z 04005KT 27/20 A3003 RMK A01 T02720201  RH  066%=      5-min Rain = 0
KWE1 140715Z 05004KT 27/20 A3003 RMK A01 T02710202  RH  066%=      5-min Rain = 0
KWE1 140716Z 05006KT 27/20 A3002 RMK A01 T02710201  RH  066%=      5-min Rain = 0
KWE1 140717Z 05007KT 27/20 A3002 RMK A01 T02700201  RH  066%=      5-min Rain = 0
KWE1 140718Z 05005KT 27/20 A3002 RMK A01 T02700201  RH  066%=      5-min Rain = 0
KWE1 140719Z 06005KT 27/20 A3002 RMK A01 T02700201  RH  066%=      5-min Rain = 0
KWE1 140720Z 05004KT 27/20 A3002 RMK A01 T02690201  RH  066%=      5-min Rain = 0
KWE1 140721Z 06004KT 27/20 A3002 RMK A01 T02690201  RH  066%=      5-min Rain = 0
KWE1 140722Z 04004KT 27/20 A3002 RMK A01 T02690201  RH  067%=      5-min Rain = 0
KWE1 140723Z 06005KT 27/20 A3002 RMK A01 T02680201  RH  067%=      5-min Rain = 0
KWE1 140724Z 06004KT 27/20 A3002 RMK A01 T02680201  RH  067%=      5-min Rain = 0
KWE1 140725Z 05004KT 27/20 A3002 RMK A01 T02680201  RH  067%=      5-min Rain = 0
KWE1 140726Z 06004KT 27/20 A3002 RMK A01 T02680201  RH  067%=      5-min Rain = 0
KWE1 140727Z 07005KT 27/20 A3002 RMK A01 T02670201  RH  067%=      5-min Rain = 0
KWE1 140728Z 06005KT 27/20 A3002 RMK A01 T02670201  RH  067%=      5-min Rain = 0
KWE1 140729Z 05005KT 27/20 A3002 RMK A01 T02670201  RH  067%=      5-min Rain = 0
KWE1 140730Z 05004KT 27/20 A3002 RMK A01 T02670201  RH  067%=      5-min Rain = 0
KWE1 140731Z 05004KT 27/20 A3002 RMK A01 T02670201  RH  067%=      5-min Rain = 0
KWE1 140732Z 05005KT 27/20 A3002 RMK A01 T02660201  RH  067%=      5-min Rain = 0
KWE1 140733Z 05005KT 27/20 A3002 RMK A01 T02670201  RH  067%=      5-min Rain = 0
KWE1 140734Z 04005KT 27/20 A3002 RMK A01 T02670201  RH  067%=      5-min Rain = 0
KWE1 140735Z 04006KT 27/20 A3002 RMK A01 T02670201  RH  067%=      5-min Rain = 0
KWE1 140736Z 04006KT 27/20 A3002 RMK A01 T02660201  RH  067%=      5-min Rain = 0
KWE1 140737Z 04007KT 27/20 A3002 RMK A01 T02660201  RH  067%=      5-min Rain = 0
KWE1 140738Z 04006KT 27/20 A3002 RMK A01 T02660200  RH  067%=      5-min Rain = 0
KWE1 140739Z 04006KT 27/20 A3002 RMK A01 T02670201  RH  067%=      5-min Rain = 0
KWE1 140740Z 04006KT 27/20 A3002 RMK A01 T02660200  RH  067%=      5-min Rain = 0
KWE1 140741Z 04006KT 27/20 A3002 RMK A01 T02660200  RH  067%=      5-min Rain = 0
KWE1 140742Z 04006KT 27/20 A3002 RMK A01 T02670201  RH  067%=      5-min Rain = 0
KWE1 140743Z 04006KT 27/20 A3002 RMK A01 T02670201  RH  067%=      5-min Rain = 0
KWE1 140744Z 04007KT 27/20 A3003 RMK A01 T02670201  RH  067%=      5-min Rain = 0
KWE1 140745Z 04006KT 27/20 A3003 RMK A01 T02670201  RH  067%=      5-min Rain = 0
KWE1 140746Z 04007KT 27/20 A3003 RMK A01 T02670201  RH  067%=      5-min Rain = 0
KWE1 140747Z 03007KT 27/20 A3003 RMK A01 T02670201  RH  067%=      5-min Rain = 0
KWE1 140748Z 04006KT 27/20 A3003 RMK A01 T02680201  RH  067%=      5-min Rain = 0
KWE1 140749Z 04007KT 27/20 A3003 RMK A01 T02680201  RH  067%=      5-min Rain = 0
KWE1 140750Z 04009KT 27/20 A3003 RMK A01 T02680201  RH  067%=      5-min Rain = 0
KWE1 140751Z 03008KT 27/20 A3003 RMK A01 T02690201  RH  066%=      5-min Rain = 0
KWE1 140752Z 03008KT 27/20 A3003 RMK A01 T02690202  RH  066%=      5-min Rain = 0
KWE1 140753Z 03007KT 27/20 A3003 RMK A01 T02690201  RH  066%=      5-min Rain = 0
KWE1 140754Z 04008KT 27/20 A3003 RMK A01 T02690201  RH  066%=      5-min Rain = 0
KWE1 140755Z 03008KT 27/20 A3003 RMK A01 T02690202  RH  066%=      5-min Rain = 0
KWE1 140756Z 03008KT 27/20 A3003 RMK A01 T02690202  RH  067%=      5-min Rain = 0
KWE1 140757Z 03009KT 27/20 A3003 RMK A01 T02690201  RH  067%=      5-min Rain = 0
KWE1 140758Z 03007KT 27/20 A3004 RMK A01 T02690202  RH  067%=      5-min Rain = 0
KWE1 140759Z 03007KT 27/20 A3004 RMK A01 T02690202  RH  067%=      5-min Rain = 0
KWE1 140800Z 04008KT 27/20 A3004 RMK A01 T02690202  RH  067%=      5-min Rain = 0
KWE1 140801Z 03009KT 27/20 A3004 RMK A01 T02690202  RH  067%=      5-min Rain = 0
KWE1 140802Z 03009KT 27/20 A3004 RMK A01 T02690202  RH  067%=      5-min Rain = 0
KWE1 140803Z 03010KT 27/20 A3004 RMK A01 T02690202  RH  067%=      5-min Rain = 0
KWE1 140804Z 03008KT 27/20 A3003 RMK A01 T02690202  RH  067%=      5-min Rain = 0
KWE1 140805Z 04006KT 27/20 A3003 RMK A01 T02690202  RH  067%=      5-min Rain = 0
KWE1 140806Z 04008KT 27/20 A3003 RMK A01 T02680202  RH  067%=      5-min Rain = 0
KWE1 140807Z 04008KT 27/20 A3003 RMK A01 T02680202  RH  067%=      5-min Rain = 0
KWE1 140808Z 04006KT 27/20 A3003 RMK A01 T02680202  RH  067%=      5-min Rain = 0
KWE1 140809Z 05006KT 27/20 A3003 RMK A01 T02680202  RH  067%=      5-min Rain = 0
KWE1 140810Z 05005KT 27/20 A3003 RMK A01 T02670202  RH  067%=      5-min Rain = 0
KWE1 140811Z 04005KT 27/20 A3003 RMK A01 T02670202  RH  068%=      5-min Rain = 0
KWE1 140812Z 04007KT 27/20 A3003 RMK A01 T02660202  RH  068%=      5-min Rain = 0
KWE1 140813Z 04009KT 27/20 A3003 RMK A01 T02660202  RH  068%=      5-min Rain = 0
KWE1 140814Z 03008KT 27/20 A3003 RMK A01 T02660202  RH  068%=      5-min Rain = 0
KWE1 140815Z 04006KT 27/20 A3003 RMK A01 T02670202  RH  068%=      5-min Rain = 0
KWE1 140816Z 04009KT 27/20 A3003 RMK A01 T02660202  RH  068%=      5-min Rain = 0
KWE1 140817Z 03006KT 27/20 A3003 RMK A01 T02660202  RH  068%=      5-min Rain = 0
KWE1 140818Z 03006KT 27/20 A3003 RMK A01 T02650202  RH  068%=      5-min Rain = 0
KWE1 140819Z 03007KT 26/20 A3003 RMK A01 T02640202  RH  068%=      5-min Rain = 0
KWE1 140820Z 04006KT 26/20 A3003 RMK A01 T02640202  RH  069%=      5-min Rain = 0
KWE1 140821Z 03007KT 26/20 A3003 RMK A01 T02640202  RH  069%=      5-min Rain = 0
KWE1 140822Z 04007KT 26/20 A3003 RMK A01 T02640202  RH  069%=      5-min Rain = 0
KWE1 140823Z 04006KT 26/20 A3003 RMK A01 T02640202  RH  069%=      5-min Rain = 0
KWE1 140824Z 03007KT 26/20 A3003 RMK A01 T02630202  RH  069%=      5-min Rain = 0
KWE1 140825Z 04007KT 26/20 A3003 RMK A01 T02630202  RH  069%=      5-min Rain = 0
KWE1 140826Z 03007KT 26/20 A3003 RMK A01 T02630202  RH  069%=      5-min Rain = 0
KWE1 140827Z 04008KT 26/20 A3003 RMK A01 T02630202  RH  069%=      5-min Rain = 0
KWE1 140828Z 04009KT 26/20 A3003 RMK A01 T02620202  RH  069%=      5-min Rain = 0
KWE1 140829Z 03009KT 26/20 A3003 RMK A01 T02620201  RH  069%=      5-min Rain = 0
KWE1 140830Z 04007KT 26/20 A3003 RMK A01 T02630201  RH  069%=      5-min Rain = 0
KWE1 140831Z 05007KT 26/20 A3003 RMK A01 T02630201  RH  069%=      5-min Rain = 0
KWE1 140832Z 04009KT 26/20 A3003 RMK A01 T02630201  RH  069%=      5-min Rain = 0
KWE1 140833Z 04009KT 26/20 A3003 RMK A01 T02640201  RH  069%=      5-min Rain = 0
KWE1 140834Z 05007KT 26/20 A3003 RMK A01 T02640201  RH  068%=      5-min Rain = 0
KWE1 140835Z 04009KT 26/20 A3003 RMK A01 T02640201  RH  068%=      5-min Rain = 0
KWE1 140836Z 05010KT 26/20 A3003 RMK A01 T02640201  RH  068%=      5-min Rain = 0
KWE1 140837Z 05008KT 26/20 A3003 RMK A01 T02640201  RH  068%=      5-min Rain = 0
KWE1 140838Z 04009KT 26/20 A3003 RMK A01 T02640201  RH  068%=      5-min Rain = 0
KWE1 140839Z 04008KT 26/20 A3003 RMK A01 T02640201  RH  068%=      5-min Rain = 0
KWE1 140840Z 04011KT 26/20 A3003 RMK A01 T02640201  RH  068%=      5-min Rain = 0
KWE1 140841Z 04008KT 26/20 A3003 RMK A01 T02640201  RH  068%=      5-min Rain = 0
KWE1 140842Z 03008KT 26/20 A3003 RMK A01 T02640201  RH  068%=      5-min Rain = 0
KWE1 140843Z 04009KT 26/20 A3003 RMK A01 T02640202  RH  069%=      5-min Rain = 0
KWE1 140844Z 04010KT 26/20 A3003 RMK A01 T02630201  RH  069%=      5-min Rain = 0
KWE1 140845Z 04009G14KT 26/20 A3003 RMK A01 T02630201  RH  069%=      5-min Rain = 0
KWE1 140846Z 03010KT 26/20 A3003 RMK A01 T02630201  RH  069%=      5-min Rain = 0
KWE1 140847Z 04009KT 26/20 A3003 RMK A01 T02630202  RH  069%=      5-min Rain = 0
KWE1 140848Z 04009KT 26/20 A3003 RMK A01 T02620201  RH  069%=      5-min Rain = 0
KWE1 140849Z 04010KT 26/20 A3003 RMK A01 T02620201  RH  069%=      5-min Rain = 0
KWE1 140850Z 03009KT 26/20 A3003 RMK A01 T02620201  RH  069%=      5-min Rain = 0
KWE1 140851Z 04008KT 26/20 A3003 RMK A01 T02620201  RH  069%=      5-min Rain = 0
KWE1 140852Z 04008KT 26/20 A3003 RMK A01 T02610201  RH  069%=      5-min Rain = 0
KWE1 140853Z 04010KT 26/20 A3003 RMK A01 T02620202  RH  070%=      5-min Rain = 0
KWE1 140854Z 04008KT 26/20 A3003 RMK A01 T02610202  RH  070%=      5-min Rain = 0
KWE1 140855Z 03009KT 26/20 A3003 RMK A01 T02610202  RH  070%=      5-min Rain = 0
KWE1 140856Z 03010KT 26/20 A3004 RMK A01 T02610202  RH  070%=      5-min Rain = 0
KWE1 140857Z 04010G15KT 26/20 A3004 RMK A01 T02610202  RH  070%=      5-min Rain = 0
KWE1 140858Z 04014KT 26/20 A3004 RMK A01 T02610202  RH  070%=      5-min Rain = 0
KWE1 140859Z 04010KT 26/20 A3004 RMK A01 T02610203  RH  070%=      5-min Rain = 0
KWE1 140900Z 04009G15KT 26/20 A3004 RMK A01 T02610202  RH  070%=      5-min Rain = 0
KWE1 140901Z 04009G14KT 26/20 A3004 RMK A01 T02610203  RH  070%=      5-min Rain = 0
KWE1 140902Z 05010KT 26/20 A3003 RMK A01 T02610203  RH  070%=      5-min Rain = 0
KWE1 140903Z 05011KT 26/20 A3003 RMK A01 T02600203  RH  071%=      5-min Rain = 0
KWE1 140904Z 04009KT 26/20 A3003 RMK A01 T02600203  RH  071%=      5-min Rain = 0
KWE1 140905Z 06009KT 26/20 A3003 RMK A01 T02610203  RH  071%=      5-min Rain = 0
KWE1 140906Z 05010KT 26/20 A3003 RMK A01 T02600203  RH  071%=      5-min Rain = 0
KWE1 140907Z 04009KT 26/20 A3003 RMK A01 T02610203  RH  071%=      5-min Rain = 0
KWE1 140908Z 04011G16KT 26/20 A3003 RMK A01 T02610203  RH  071%=      5-min Rain = 0
KWE1 140909Z 05010KT 26/20 A3003 RMK A01 T02610203  RH  071%=      5-min Rain = 0
KWE1 140910Z 05010KT 26/20 A3003 RMK A01 T02600202  RH  070%=      5-min Rain = 0
KWE1 140911Z 06011KT 26/20 A3003 RMK A01 T02610203  RH  070%=      5-min Rain = 0
KWE1 140912Z 05010KT 26/20 A3003 RMK A01 T02610202  RH  070%=      5-min Rain = 0
KWE1 140913Z 06010KT 26/20 A3003 RMK A01 T02620202  RH  070%=      5-min Rain = 0
KWE1 140914Z 06010KT 26/20 A3003 RMK A01 T02610202  RH  070%=      5-min Rain = 0
KWE1 140915Z 06009KT 26/20 A3003 RMK A01 T02610202  RH  070%=      5-min Rain = 0
KWE1 140916Z 05008KT 26/20 A3003 RMK A01 T02610202  RH  070%=      5-min Rain = 0
KWE1 140917Z 05010G15KT 26/20 A3003 RMK A01 T02610201  RH  070%=      5-min Rain = 0
KWE1 140918Z 05011KT 26/20 A3003 RMK A01 T02600200  RH  069%=      5-min Rain = 0
KWE1 140919Z 05009KT 26/20 A3003 RMK A01 T02610200  RH  069%=      5-min Rain = 0
KWE1 140920Z 06009KT 26/20 A3003 RMK A01 T02610200  RH  069%=      5-min Rain = 0
KWE1 140921Z 05010KT 26/20 A3003 RMK A01 T02610200  RH  069%=      5-min Rain = 0
KWE1 140922Z 06011KT 26/20 A3003 RMK A01 T02600199  RH  069%=      5-min Rain = 0
KWE1 140923Z 05011KT 26/20 A3003 RMK A01 T02600199  RH  069%=      5-min Rain = 0
KWE1 140924Z 05011KT 26/20 A3003 RMK A01 T02610199  RH  069%=      5-min Rain = 0
KWE1 140925Z 06010KT 26/20 A3003 RMK A01 T02610199  RH  069%=      5-min Rain = 0
KWE1 140926Z 06010KT 26/20 A3003 RMK A01 T02600199  RH  069%=      5-min Rain = 0
KWE1 140927Z 06008KT 26/20 A3003 RMK A01 T02600199  RH  069%=      5-min Rain = 0
KWE1 140928Z 06010KT 26/20 A3003 RMK A01 T02600199  RH  069%=      5-min Rain = 0
KWE1 140929Z 05011KT 26/20 A3003 RMK A01 T02600199  RH  069%=      5-min Rain = 0
KWE1 140930Z 06009KT 26/20 A3003 RMK A01 T02590198  RH  069%=      5-min Rain = 0
KWE1 140931Z 05010KT 26/20 A3003 RMK A01 T02590198  RH  069%=      5-min Rain = 0
KWE1 140932Z 05011KT 26/20 A3003 RMK A01 T02590198  RH  069%=      5-min Rain = 0
KWE1 140933Z 05012KT 26/20 A3003 RMK A01 T02590198  RH  069%=      5-min Rain = 0
KWE1 140934Z 05011KT 26/20 A3003 RMK A01 T02590198  RH  069%=      5-min Rain = 0
KWE1 140935Z 05009G15KT 26/20 A3003 RMK A01 T02590198  RH  069%=      5-min Rain = 0
KWE1 140936Z 05014KT 26/20 A3003 RMK A01 T02590198  RH  069%=      5-min Rain = 0
KWE1 140937Z 06012KT 26/20 A3003 RMK A01 T02590199  RH  069%=      5-min Rain = 0
KWE1 140938Z 05011KT 26/20 A3003 RMK A01 T02590199  RH  069%=      5-min Rain = 0
KWE1 140939Z 05010KT 26/20 A3003 RMK A01 T02590199  RH  070%=      5-min Rain = 0
KWE1 140940Z 05008KT 26/20 A3003 RMK A01 T02580199  RH  070%=      5-min Rain = 0
KWE1 140941Z 05009KT 26/20 A3003 RMK A01 T02580199  RH  070%=      5-min Rain = 0
KWE1 140942Z 05009KT 26/20 A3003 RMK A01 T02570199  RH  070%=      5-min Rain = 0
KWE1 140943Z 04007KT 26/20 A3003 RMK A01 T02570200  RH  070%=      5-min Rain = 0
KWE1 140944Z 05008KT 26/20 A3003 RMK A01 T02570200  RH  071%=      5-min Rain = 0
KWE1 140945Z 05008KT 26/20 A3003 RMK A01 T02560200  RH  071%=      5-min Rain = 0
KWE1 140946Z 06010KT 26/20 A3003 RMK A01 T02550201  RH  072%=      5-min Rain = 0
KWE1 140947Z 05012G17KT 26/20 A3003 RMK A01 T02550201  RH  072%=      5-min Rain = 0
KWE1 140948Z 06013KT 26/20 A3003 RMK A01 T02550201  RH  072%=      5-min Rain = 0
KWE1 140949Z 06012KT 25/20 A3003 RMK A01 T02540201  RH  073%=      5-min Rain = 0
KWE1 140950Z 06011KT 25/20 A3004 RMK A01 T02540202  RH  073%=      5-min Rain = 0
KWE1 140951Z 05011G17KT 25/20 A3004 RMK A01 T02530201  RH  073%=      5-min Rain = 0
KWE1 140952Z 06011KT 25/20 A3004 RMK A01 T02530201  RH  073%=      5-min Rain = 0
KWE1 140953Z 07013G21KT 25/20 A3003 RMK A01 T02520201  RH  073%=      5-min Rain = 0
KWE1 140954Z 06012KT 25/20 A3003 RMK A01 T02520201  RH  073%=      5-min Rain = 0
KWE1 140955Z 06013KT 25/20 A3003 RMK A01 T02520201  RH  073%=      5-min Rain = 0
KWE1 140956Z 06013G18KT 25/20 A3004 RMK A01 T02520201  RH  073%=      5-min Rain = 0
KWE1 140957Z 06011KT 25/20 A3003 RMK A01 T02520201  RH  073%=      5-min Rain = 0
KWE1 140958Z 06011KT 25/20 A3003 RMK A01 T02510201  RH  073%=      5-min Rain = 0
KWE1 140959Z 06011KT 25/20 A3003 RMK A01 T02510201  RH  073%=      5-min Rain = 0
KWE1 141000Z 06011KT 25/20 A3003 RMK A01 T02510201  RH  073%=      5-min Rain = 0
KWE1 141001Z 06011KT 25/20 A3003 RMK A01 T02510200  RH  073%=      5-min Rain = 0
KWE1 141002Z 07012KT 25/20 A3003 RMK A01 T02520201  RH  073%=      5-min Rain = 0
KWE1 141003Z 06014G19KT 25/20 A3004 RMK A01 T02510200  RH  073%=      5-min Rain = 0
KWE1 141004Z 07013KT 25/20 A3004 RMK A01 T02520200  RH  073%=      5-min Rain = 0
KWE1 141005Z 06012KT 25/20 A3004 RMK A01 T02520200  RH  073%=      5-min Rain = 0
KWE1 141006Z 07013KT 25/20 A3004 RMK A01 T02520201  RH  073%=      5-min Rain = 0
KWE1 141007Z 06010KT 25/20 A3004 RMK A01 T02520201  RH  073%=      5-min Rain = 0
KWE1 141008Z 07011KT 25/20 A3003 RMK A01 T02520201  RH  073%=      5-min Rain = 0
KWE1 141009Z 07011KT 25/20 A3004 RMK A01 T02520201  RH  073%=      5-min Rain = 0
KWE1 141010Z 07011G16KT 25/20 A3003 RMK A01 T02520201  RH  074%=      5-min Rain = 0
KWE1 141011Z 06012KT 25/20 A3004 RMK A01 T02520202  RH  074%=      5-min Rain = 0
KWE1 141012Z 07011KT 25/20 A3003 RMK A01 T02520202  RH  074%=      5-min Rain = 0
KWE1 141013Z 06012KT 25/20 A3003 RMK A01 T02520203  RH  074%=      5-min Rain = 0
KWE1 141014Z 06014KT 25/20 A3003 RMK A01 T02520203  RH  074%=      5-min Rain = 0
KWE1 141015Z 06011KT 25/20 A3003 RMK A01 T02520203  RH  074%=      5-min Rain = 0
KWE1 141016Z 07012KT 25/20 A3003 RMK A01 T02520203  RH  074%=      5-min Rain = 0
KWE1 141017Z 06013G19KT 25/20 A3003 RMK A01 T02520203  RH  075%=      5-min Rain = 0
KWE1 141018Z 07012KT 25/20 A3003 RMK A01 T02520204  RH  075%=      5-min Rain = 0
KWE1 141019Z 07012KT 25/20 A3004 RMK A01 T02520204  RH  075%=      5-min Rain = 0
KWE1 141020Z 07011G18KT 25/20 A3004 RMK A01 T02520204  RH  075%=      5-min Rain = 0
KWE1 141021Z 06014KT 25/21 A3004 RMK A01 T02520205  RH  075%=      5-min Rain = 0
KWE1 141022Z 06013KT 25/21 A3004 RMK A01 T02520205  RH  075%=      5-min Rain = 0
KWE1 141023Z 06013G18KT 25/21 A3004 RMK A01 T02520205  RH  075%=      5-min Rain = 0
KWE1 141024Z 06015KT 25/21 A3004 RMK A01 T02520206  RH  075%=      5-min Rain = 0
KWE1 141025Z 07012KT 25/21 A3004 RMK A01 T02520205  RH  075%=      5-min Rain = 0
KWE1 141026Z 07010KT 25/21 A3004 RMK A01 T02520205  RH  075%=      5-min Rain = 0
KWE1 141027Z 07012KT 25/21 A3004 RMK A01 T02520206  RH  076%=      5-min Rain = 0
KWE1 141028Z 07015KT 25/21 A3004 RMK A01 T02520206  RH  076%=      5-min Rain = 0
KWE1 141029Z 06011KT 25/21 A3004 RMK A01 T02520207  RH  076%=      5-min Rain = 0
KWE1 141030Z 06012KT 25/21 A3004 RMK A01 T02520207  RH  076%=      5-min Rain = 0
KWE1 141031Z 07011KT 25/21 A3004 RMK A01 T02520207  RH  076%=      5-min Rain = 0
KWE1 141032Z 07011KT 25/21 A3004 RMK A01 T02520207  RH  076%=      5-min Rain = 0
KWE1 141033Z 07008KT 25/21 A3004 RMK A01 T02520206  RH  076%=      5-min Rain = 0
KWE1 141034Z 06010KT 25/21 A3004 RMK A01 T02510206  RH  076%=      5-min Rain = 0
KWE1 141035Z 06011G16KT 25/21 A3004 RMK A01 T02510206  RH  076%=      5-min Rain = 0
KWE1 141036Z 06011KT 25/21 A3004 RMK A01 T02510206  RH  076%=      5-min Rain = 0
KWE1 141037Z 07011KT 25/21 A3005 RMK A01 T02510206  RH  076%=      5-min Rain = 0
KWE1 141038Z 07010KT 25/21 A3005 RMK A01 T02510206  RH  076%=      5-min Rain = 0
KWE1 141039Z 06010KT 25/21 A3005 RMK A01 T02510205  RH  076%=      5-min Rain = 0
KWE1 141040Z 07012KT 25/21 A3005 RMK A01 T02520206  RH  076%=      5-min Rain = 0
KWE1 141041Z 06010KT 25/21 A3005 RMK A01 T02520206  RH  076%=      5-min Rain = 0
KWE1 141042Z 07011KT 25/21 A3005 RMK A01 T02520206  RH  076%=      5-min Rain = 0
KWE1 141043Z 07008KT 25/21 A3005 RMK A01 T02520206  RH  076%=      5-min Rain = 0
KWE1 141044Z 06010KT 25/21 A3005 RMK A01 T02520206  RH  076%=      5-min Rain = 0
KWE1 141045Z 07011KT 25/21 A3005 RMK A01 T02520207  RH  076%=      5-min Rain = 0
KWE1 141046Z 06011KT 25/21 A3005 RMK A01 T02520206  RH  076%=      5-min Rain = 0
KWE1 141047Z 07010KT 25/21 A3004 RMK A01 T02520207  RH  076%=      5-min Rain = 0
KWE1 141048Z 07009KT 25/21 A3004 RMK A01 T02520206  RH  076%=      5-min Rain = 0
KWE1 141049Z 07010KT 25/21 A3005 RMK A01 T02520206  RH  076%=      5-min Rain = 0
KWE1 141050Z 06008KT 25/21 A3005 RMK A01 T02520206  RH  076%=      5-min Rain = 0
KWE1 141051Z 06009KT 25/21 A3005 RMK A01 T02520207  RH  076%=      5-min Rain = 0
KWE1 141052Z 06009KT 25/21 A3005 RMK A01 T02520206  RH  076%=      5-min Rain = 0
KWE1 141053Z 06007KT 25/21 A3005 RMK A01 T02520207  RH  076%=      5-min Rain = 0
KWE1 141054Z 05006KT 25/21 A3005 RMK A01 T02520207  RH  076%=      5-min Rain = 0
KWE1 141055Z 05006KT 25/21 A3005 RMK A01 T02520207  RH  076%=      5-min Rain = 0
KWE1 141056Z 05007KT 25/21 A3005 RMK A01 T02510207  RH  076%=      5-min Rain = 0
KWE1 141057Z 06004KT 25/21 A3005 RMK A01 T02510207  RH  076%=      5-min Rain = 0
KWE1 141058Z 07005KT 25/21 A3005 RMK A01 T02510207  RH  076%=      5-min Rain = 0
KWE1 141059Z 05004KT 25/21 A3005 RMK A01 T02510207  RH  077%=      5-min Rain = 0
KWE1 141100Z 05005KT 25/21 A3005 RMK A01 T02510207  RH  077%=      5-min Rain = 0
KWE1 141101Z 06004KT 25/21 A3005 RMK A01 T02500207  RH  077%=      5-min Rain = 0
KWE1 141102Z 06006KT 25/21 A3005 RMK A01 T02500207  RH  077%=      5-min Rain = 0
KWE1 141103Z 06005KT 25/21 A3005 RMK A01 T02500207  RH  077%=      5-min Rain = 0
KWE1 141104Z 06005KT 25/21 A3005 RMK A01 T02500207  RH  077%=      5-min Rain = 0
KWE1 141105Z 05005KT 25/21 A3005 RMK A01 T02490206  RH  077%=      5-min Rain = 0
KWE1 141106Z 06005KT 25/21 A3005 RMK A01 T02500207  RH  077%=      5-min Rain = 0
KWE1 141107Z 05004KT 25/21 A3005 RMK A01 T02490207  RH  077%=      5-min Rain = 0
KWE1 141108Z 05005KT 25/21 A3005 RMK A01 T02490207  RH  077%=      5-min Rain = 0
KWE1 141109Z 05005KT 25/21 A3005 RMK A01 T02490207  RH  077%=      5-min Rain = 0
KWE1 141110Z 05005KT 25/21 A3005 RMK A01 T02490207  RH  078%=      5-min Rain = 0
KWE1 141111Z 05006KT 25/21 A3005 RMK A01 T02480207  RH  078%=      5-min Rain = 0
KWE1 141112Z 04006KT 25/21 A3005 RMK A01 T02480207  RH  078%=      5-min Rain = 0
KWE1 141113Z 04005KT 25/21 A3005 RMK A01 T02480207  RH  078%=      5-min Rain = 0
KWE1 141114Z 04005KT 25/21 A3005 RMK A01 T02480207  RH  078%=      5-min Rain = 0
KWE1 141115Z 04006KT 25/21 A3005 RMK A01 T02470207  RH  078%=      5-min Rain = 0
KWE1 141116Z 04006KT 25/21 A3005 RMK A01 T02470207  RH  078%=      5-min Rain = 0
KWE1 141117Z 05006KT 25/21 A3006 RMK A01 T02470207  RH  079%=      5-min Rain = 0
KWE1 141118Z 05006KT 25/21 A3006 RMK A01 T02460207  RH  079%=      5-min Rain = 0
KWE1 141119Z 05006KT 25/21 A3006 RMK A01 T02460207  RH  079%=      5-min Rain = 0
KWE1 141120Z 04008KT 25/21 A3006 RMK A01 T02460207  RH  079%=      5-min Rain = 0
KWE1 141121Z 04006KT 25/21 A3006 RMK A01 T02460207  RH  079%=      5-min Rain = 0
KWE1 141122Z 04007KT 25/21 A3006 RMK A01 T02470207  RH  079%=      5-min Rain = 0
KWE1 141123Z 04008KT 25/21 A3006 RMK A01 T02460207  RH  079%=      5-min Rain = 0
KWE1 141124Z 04008KT 25/21 A3006 RMK A01 T02460207  RH  079%=      5-min Rain = 0
KWE1 141125Z 04007KT 25/21 A3006 RMK A01 T02460207  RH  079%=      5-min Rain = 0
KWE1 141126Z 03006KT 25/21 A3006 RMK A01 T02460207  RH  079%=      5-min Rain = 0
KWE1 141127Z 03006KT 25/21 A3006 RMK A01 T02460207  RH  079%=      5-min Rain = 0
KWE1 141128Z 03007KT 25/21 A3006 RMK A01 T02450207  RH  079%=      5-min Rain = 0
KWE1 141129Z 02008KT 25/21 A3006 RMK A01 T02450207  RH  080%=      5-min Rain = 0
KWE1 141130Z 02009KT 24/21 A3006 RMK A01 T02440208  RH  080%=      5-min Rain = 0
KWE1 141131Z 02010KT 24/21 A3007 RMK A01 T02440208  RH  080%=      5-min Rain = 0
KWE1 141132Z 02009KT 24/21 A3007 RMK A01 T02440208  RH  081%=      5-min Rain = 0
KWE1 141133Z 02010KT 24/21 A3007 RMK A01 T02440208  RH  081%=      5-min Rain = 0
KWE1 141134Z 01011KT 24/21 A3007 RMK A01 T02430207  RH  080%=      5-min Rain = 0
KWE1 141135Z 02012KT 24/21 A3007 RMK A01 T02420206  RH  080%=      5-min Rain = 0
KWE1 141136Z 02013KT 24/21 A3007 RMK A01 T02420207  RH  081%=      5-min Rain = 0
KWE1 141137Z 02012KT 24/21 A3007 RMK A01 T02410207  RH  081%=      5-min Rain = 0
KWE1 141138Z 02011KT 24/21 A3007 RMK A01 T02400207  RH  082%=      5-min Rain = 0
KWE1 141139Z 02011KT 24/21 A3007 RMK A01 T02390208  RH  083%=      5-min Rain = 0
KWE1 141140Z 02012KT 24/21 A3007 RMK A01 T02380208  RH  083%=      5-min Rain = 0
KWE1 141141Z 02011KT 24/21 A3007 RMK A01 T02370208  RH  084%=      5-min Rain = 0
KWE1 141142Z 02011KT 24/21 A3007 RMK A01 T02370209  RH  084%=      5-min Rain = 0
KWE1 141143Z 02014KT 24/21 A3008 RMK A01 T02360209  RH  085%=      5-min Rain = 0
KWE1 141144Z 03011KT 24/21 A3008 RMK A01 T02360209  RH  085%=      5-min Rain = 0
KWE1 141145Z 03010KT 24/21 A3008 RMK A01 T02360209  RH  085%=      5-min Rain = 0
KWE1 141146Z 03012KT 24/21 A3008 RMK A01 T02360210  RH  085%=      5-min Rain = 0
KWE1 141147Z 03010KT 24/21 A3008 RMK A01 T02350210  RH  086%=      5-min Rain = 0
KWE1 141148Z 03009KT 24/21 A3008 RMK A01 T02350210  RH  086%=      5-min Rain = 0
KWE1 141149Z 03008KT 24/21 A3008 RMK A01 T02350210  RH  086%=      5-min Rain = 0
KWE1 141150Z 03008KT 24/21 A3007 RMK A01 T02350210  RH  086%=      5-min Rain = 0
KWE1 141151Z 03011KT 24/21 A3008 RMK A01 T02350211  RH  087%=      5-min Rain = 0
KWE1 141152Z 03009KT 23/21 A3007 RMK A01 T02340211  RH  087%=      5-min Rain = 0
KWE1 141153Z 03010KT 23/21 A3007 RMK A01 T02340211  RH  087%=      5-min Rain = 0
KWE1 141154Z 03010KT 23/21 A3007 RMK A01 T02340212  RH  087%=      5-min Rain = 0
KWE1 141155Z 03007KT 23/21 A3007 RMK A01 T02340212  RH  087%=      5-min Rain = 0
KWE1 141156Z 03008KT 23/21 A3008 RMK A01 T02330212  RH  088%=      5-min Rain = 0
KWE1 141157Z 04009KT 23/21 A3007 RMK A01 T02340212  RH  088%=      5-min Rain = 0
KWE1 141158Z 03009KT 23/21 A3007 RMK A01 T02340213  RH  088%=      5-min Rain = 0
KWE1 141159Z 04008KT 23/21 A3007 RMK A01 T02340213  RH  088%=      5-min Rain = 0
KWE1 141200Z 04007KT 23/21 A3007 RMK A01 T02330213  RH  088%=      5-min Rain = 0
KWE1 141201Z 04008KT 23/21 A3007 RMK A01 T02340213  RH  088%=      5-min Rain = 0
KWE1 141202Z 04006KT 23/21 A3007 RMK A01 T02340213  RH  088%=      5-min Rain = 0
KWE1 141203Z 04008KT 23/21 A3007 RMK A01 T02330213  RH  088%=      5-min Rain = 0
KWE1 141204Z 04006KT 23/21 A3007 RMK A01 T02340213  RH  088%=      5-min Rain = 0
KWE1 141205Z 05007KT 23/21 A3007 RMK A01 T02330213  RH  088%=      5-min Rain = 0
KWE1 141206Z 05005KT 23/21 A3007 RMK A01 T02340213  RH  088%=      5-min Rain = 0
KWE1 141207Z 04007KT 23/21 A3007 RMK A01 T02330213  RH  088%=      5-min Rain = 0
KWE1 141208Z 05006KT 23/21 A3007 RMK A01 T02330213  RH  088%=      5-min Rain = 0
KWE1 141209Z 04006KT 23/21 A3007 RMK A01 T02330213  RH  088%=      5-min Rain = 0
KWE1 141210Z 05008KT 23/21 A3007 RMK A01 T02340213  RH  088%=      5-min Rain = 0
KWE1 141211Z 04006KT 23/21 A3007 RMK A01 T02340213  RH  088%=      5-min Rain = 0
KWE1 141212Z 05007KT 23/21 A3007 RMK A01 T02340213  RH  088%=      5-min Rain = 0
KWE1 141213Z 05007KT 23/21 A3007 RMK A01 T02340213  RH  088%=      5-min Rain = 0
KWE1 141214Z 05006KT 23/21 A3007 RMK A01 T02330213  RH  088%=      5-min Rain = 0
KWE1 141215Z 05006KT 23/21 A3007 RMK A01 T02340213  RH  088%=      5-min Rain = 0
KWE1 141216Z 06006KT 23/21 A3007 RMK A01 T02330213  RH  088%=      5-min Rain = 0
KWE1 141217Z 05007KT 23/21 A3007 RMK A01 T02340213  RH  088%=      5-min Rain = 0
KWE1 141218Z 05008KT 23/21 A3007 RMK A01 T02340213  RH  088%=      5-min Rain = 0
KWE1 141219Z 05006KT 23/21 A3007 RMK A01 T02340213  RH  088%=      5-min Rain = 0
KWE1 141220Z 04007KT 23/21 A3007 RMK A01 T02340213  RH  088%=      5-min Rain = 0
KWE1 141221Z 04007KT 23/21 A3007 RMK A01 T02340213  RH  088%=      5-min Rain = 0
KWE1 141222Z 05008KT 23/21 A3007 RMK A01 T02330213  RH  088%=      5-min Rain = 0
KWE1 141223Z 04005KT 23/21 A3007 RMK A01 T02330213  RH  088%=      5-min Rain = 0
KWE1 141224Z 05006KT 23/21 A3007 RMK A01 T02340213  RH  088%=      5-min Rain = 0
KWE1 141225Z 04006KT 23/21 A3007 RMK A01 T02330213  RH  088%=      5-min Rain = 0
KWE1 141226Z 06006KT 23/21 A3007 RMK A01 T02330213  RH  088%=      5-min Rain = 0
KWE1 141227Z 06006KT 23/21 A3007 RMK A01 T02340213  RH  088%=      5-min Rain = 0
KWE1 141228Z 06006KT 23/21 A3007 RMK A01 T02330213  RH  088%=      5-min Rain = 0
KWE1 141229Z 06005KT 23/21 A3007 RMK A01 T02330213  RH  088%=      5-min Rain = 0
KWE1 141230Z 06005KT 23/21 A3008 RMK A01 T02340213  RH  088%=      5-min Rain = 0
KWE1 141231Z 05004KT 23/21 A3008 RMK A01 T02340214  RH  088%=      5-min Rain = 0
KWE1 141232Z 05003KT 23/21 A3008 RMK A01 T02330213  RH  088%=      5-min Rain = 0
KWE1 141233Z 05004KT 23/21 A3008 RMK A01 T02330213  RH  088%=      5-min Rain = 0
KWE1 141234Z 04004KT 23/21 A3008 RMK A01 T02330213  RH  088%=      5-min Rain = 0
KWE1 141235Z 04004KT 23/21 A3008 RMK A01 T02340213  RH  088%=      5-min Rain = 0
KWE1 141236Z 05005KT 23/21 A3008 RMK A01 T02340213  RH  088%=      5-min Rain = 0
KWE1 141237Z 05007KT 23/21 A3008 RMK A01 T02340213  RH  088%=      5-min Rain = 0
KWE1 141238Z 04006KT 23/21 A3008 RMK A01 T02340213  RH  088%=      5-min Rain = 0
KWE1 141239Z 03006KT 24/21 A3009 RMK A01 T02350213  RH  088%=      5-min Rain = 0
KWE1 141240Z 04007KT 24/21 A3009 RMK A01 T02350214  RH  088%=      5-min Rain = 0
KWE1 141241Z 03006KT 24/21 A3009 RMK A01 T02350213  RH  087%=      5-min Rain = 0
KWE1 141242Z 04007KT 24/21 A3009 RMK A01 T02360214  RH  087%=      5-min Rain = 0
KWE1 141243Z 03006KT 24/21 A3009 RMK A01 T02360214  RH  087%=      5-min Rain = 0
KWE1 141244Z 03008KT 24/21 A3009 RMK A01 T02360213  RH  087%=      5-min Rain = 0
KWE1 141245Z 04006KT 24/21 A3009 RMK A01 T02360214  RH  087%=      5-min Rain = 0
KWE1 141246Z 04006KT 24/21 A3009 RMK A01 T02360213  RH  087%=      5-min Rain = 0
KWE1 141247Z 04007KT 24/21 A3009 RMK A01 T02370214  RH  087%=      5-min Rain = 0
KWE1 141248Z 04007KT 24/21 A3009 RMK A01 T02370214  RH  087%=      5-min Rain = 0
KWE1 141249Z 04006KT 24/21 A3009 RMK A01 T02370213  RH  087%=      5-min Rain = 0
KWE1 141250Z 02006KT 24/21 A3009 RMK A01 T02380214  RH  087%=      5-min Rain = 0
KWE1 141251Z 03007KT 24/21 A3009 RMK A01 T02380214  RH  087%=      5-min Rain = 0
KWE1 141252Z 04007KT 24/21 A3009 RMK A01 T02380214  RH  086%=      5-min Rain = 0
KWE1 141253Z 03005KT 24/21 A3009 RMK A01 T02380214  RH  086%=      5-min Rain = 0
KWE1 141254Z 02005KT 24/22 A301 RMK A01 T02390215  RH  086%=      5-min Rain = 0
KWE1 141255Z 02007KT 24/21 A301 RMK A01 T02390214  RH  086%=      5-min Rain = 0
KWE1 141256Z 02007KT 24/21 A301 RMK A01 T02390214  RH  086%=      5-min Rain = 0
KWE1 141257Z 02007KT 24/21 A3009 RMK A01 T02390213  RH  086%=      5-min Rain = 0
KWE1 141258Z 01008KT 24/21 A3009 RMK A01 T02390214  RH  086%=      5-min Rain = 0
KWE1 141259Z 02008KT 24/21 A3009 RMK A01 T02390214  RH  085%=      5-min Rain = 0
KWE1 141300Z 02008KT 24/21 A3009 RMK A01 T02400214  RH  085%=      5-min Rain = 0
KWE1 141301Z 02009KT 24/21 A3009 RMK A01 T02390214  RH  085%=      5-min Rain = 0
KWE1 141302Z 02008KT 24/21 A3009 RMK A01 T02390213  RH  085%=      5-min Rain = 0
KWE1 141303Z 02009KT 24/21 A3009 RMK A01 T02400213  RH  085%=      5-min Rain = 0
KWE1 141304Z 02009KT 24/21 A301 RMK A01 T02400213  RH  085%=      5-min Rain = 0
KWE1 141305Z 03009KT 24/21 A301 RMK A01 T02400213  RH  085%=      5-min Rain = 0
KWE1 141306Z 02010KT 24/21 A301 RMK A01 T02400213  RH  084%=      5-min Rain = 0
KWE1 141307Z 02009KT 24/21 A301 RMK A01 T02410213  RH  084%=      5-min Rain = 0
KWE1 141308Z 03009KT 24/21 A301 RMK A01 T02410212  RH  084%=      5-min Rain = 0
KWE1 141309Z 02009KT 24/21 A301 RMK A01 T02410213  RH  084%=      5-min Rain = 0
KWE1 141310Z 01009KT 24/21 A301 RMK A01 T02420213  RH  084%=      5-min Rain = 0
KWE1 141311Z 01008KT 24/21 A301 RMK A01 T02420214  RH  084%=      5-min Rain = 0
KWE1 141312Z 01010KT 24/21 A301 RMK A01 T02430214  RH  084%=      5-min Rain = 0
KWE1 141313Z 03009KT 24/21 A301 RMK A01 T02430214  RH  084%=      5-min Rain = 0
KWE1 141314Z 02010KT 24/21 A301 RMK A01 T02430214  RH  084%=      5-min Rain = 0
KWE1 141315Z 02011KT 24/21 A301 RMK A01 T02430213  RH  083%=      5-min Rain = 0
KWE1 141316Z 03007KT 24/21 A301 RMK A01 T02430213  RH  083%=      5-min Rain = 0
KWE1 141317Z 03008KT 24/21 A301 RMK A01 T02430213  RH  083%=      5-min Rain = 0
KWE1 141318Z 03008KT 24/21 A301 RMK A01 T02440214  RH  083%=      5-min Rain = 0
KWE1 141319Z 03008KT 25/21 A301 RMK A01 T02450214  RH  083%=      5-min Rain = 0
KWE1 141320Z 02009KT 25/21 A301 RMK A01 T02450214  RH  083%=      5-min Rain = 0
KWE1 141321Z 02009KT 25/21 A301 RMK A01 T02450214  RH  083%=      5-min Rain = 0
KWE1 141322Z 01007KT 25/21 A301 RMK A01 T02450214  RH  083%=      5-min Rain = 0
KWE1 141323Z 02009KT 25/22 A301 RMK A01 T02460215  RH  083%=      5-min Rain = 0
KWE1 141324Z 02009KT 25/21 A3011 RMK A01 T02460214  RH  083%=      5-min Rain = 0
KWE1 141325Z 02011KT 25/21 A3011 RMK A01 T02460214  RH  083%=      5-min Rain = 0
KWE1 141326Z 01011KT 25/22 A301 RMK A01 T02470215  RH  083%=      5-min Rain = 0
KWE1 141327Z 02009KT 25/22 A301 RMK A01 T02460215  RH  083%=      5-min Rain = 0
KWE1 141328Z 01010KT 25/22 A3011 RMK A01 T02470215  RH  083%=      5-min Rain = 0
KWE1 141329Z 01010KT 25/22 A3011 RMK A01 T02470215  RH  082%=      5-min Rain = 0
KWE1 141330Z 02011KT 25/22 A3011 RMK A01 T02470216  RH  083%=      5-min Rain = 0
KWE1 141331Z 01008KT 25/22 A3011 RMK A01 T02470216  RH  083%=      5-min Rain = 0
KWE1 141332Z 02008KT 25/22 A3011 RMK A01 T02470217  RH  083%=      5-min Rain = 0
KWE1 141333Z 02011KT 25/22 A3011 RMK A01 T02480216  RH  083%=      5-min Rain = 0
KWE1 141334Z 02010KT 25/22 A3011 RMK A01 T02480216  RH  083%=      5-min Rain = 0
KWE1 141335Z 02010KT 25/22 A3011 RMK A01 T02480217  RH  083%=      5-min Rain = 0
KWE1 141336Z 02011KT 25/22 A3011 RMK A01 T02470217  RH  083%=      5-min Rain = 0
KWE1 141337Z 02009KT 25/22 A3011 RMK A01 T02470216  RH  083%=      5-min Rain = 0
KWE1 141338Z 01010KT 25/22 A3011 RMK A01 T02460217  RH  084%=      5-min Rain = 0
KWE1 141339Z 02010KT 25/22 A3011 RMK A01 T02460217  RH  084%=      5-min Rain = 0
KWE1 141340Z 02012KT 25/22 A3011 RMK A01 T02460216  RH  083%=      5-min Rain = 0
KWE1 141341Z 02012KT 25/22 A3011 RMK A01 T02460216  RH  083%=      5-min Rain = 0
KWE1 141342Z 01011KT 25/22 A3011 RMK A01 T02450215  RH  084%=      5-min Rain = 0
KWE1 141343Z 01010KT 25/22 A3011 RMK A01 T02450215  RH  083%=      5-min Rain = 0
KWE1 141344Z 00009KT 25/22 A3011 RMK A01 T02450216  RH  084%=      5-min Rain = 0
KWE1 141345Z 01008KT 25/22 A3011 RMK A01 T02450215  RH  083%=      5-min Rain = 0
KWE1 141346Z 02012KT 25/22 A3011 RMK A01 T02460215  RH  083%=      5-min Rain = 0
KWE1 141347Z 03011KT 25/21 A3011 RMK A01 T02460214  RH  082%=      5-min Rain = 0
KWE1 141348Z 01010KT 25/21 A3011 RMK A01 T02460214  RH  083%=      5-min Rain = 0
KWE1 141349Z 01011KT 25/21 A3011 RMK A01 T02460214  RH  082%=      5-min Rain = 0
KWE1 141350Z 01012KT 25/21 A3011 RMK A01 T02460213  RH  082%=      5-min Rain = 0
KWE1 141351Z 01011KT 25/21 A3011 RMK A01 T02450212  RH  082%=      5-min Rain = 0
KWE1 141352Z 01011KT 25/21 A3011 RMK A01 T02450212  RH  082%=      5-min Rain = 0
KWE1 141353Z 00009KT 24/21 A3011 RMK A01 T02440211  RH  082%=      5-min Rain = 0
KWE1 141354Z 01009KT 24/21 A3012 RMK A01 T02440211  RH  082%=      5-min Rain = 0
KWE1 141355Z 01011KT 25/21 A3012 RMK A01 T02450211  RH  081%=      5-min Rain = 0
KWE1 141356Z 00012KT 25/21 A3012 RMK A01 T02450211  RH  081%=      5-min Rain = 0
KWE1 141357Z 01010KT 25/21 A3012 RMK A01 T02450211  RH  082%=      5-min Rain = 0
KWE1 141358Z 01009KT 24/21 A3012 RMK A01 T02440211  RH  082%=      5-min Rain = 0
KWE1 141359Z 01008KT 25/21 A3012 RMK A01 T02450211  RH  082%=      5-min Rain = 0
KWE1 141400Z 01008KT 25/21 A3012 RMK A01 T02460211  RH  081%=      5-min Rain = 0
KWE1 141401Z 01008KT 25/21 A3011 RMK A01 T02460211  RH  081%=      5-min Rain = 0
KWE1 141402Z 02011KT 25/21 A3011 RMK A01 T02470212  RH  081%=      5-min Rain = 0
KWE1 141403Z 02009KT 25/21 A3011 RMK A01 T02470212  RH  081%=      5-min Rain = 0
KWE1 141404Z 02010KT 25/21 A3011 RMK A01 T02470212  RH  081%=      5-min Rain = 0
KWE1 141405Z 01009KT 25/21 A3011 RMK A01 T02490213  RH  080%=      5-min Rain = 0
KWE1 141406Z 01010KT 25/21 A3012 RMK A01 T02500212  RH  079%=      5-min Rain = 0
KWE1 141407Z 02009KT 25/21 A3012 RMK A01 T02500212  RH  080%=      5-min Rain = 0
KWE1 141408Z 01010KT 25/21 A3012 RMK A01 T02500213  RH  080%=      5-min Rain = 0
KWE1 141409Z 00012KT 25/21 A3012 RMK A01 T02490212  RH  080%=      5-min Rain = 0
KWE1 141410Z 01013KT 25/21 A3012 RMK A01 T02490212  RH  080%=      5-min Rain = 0
KWE1 141411Z 01012KT 25/21 A3012 RMK A01 T02490212  RH  080%=      5-min Rain = 0
KWE1 141412Z 01011KT 25/21 A3012 RMK A01 T02480212  RH  080%=      5-min Rain = 0
KWE1 141413Z 03010KT 25/21 A3012 RMK A01 T02490212  RH  080%=      5-min Rain = 0
KWE1 141414Z 03008KT 25/21 A3012 RMK A01 T02490212  RH  080%=      5-min Rain = 0
KWE1 141415Z 02012KT 25/21 A3012 RMK A01 T02490212  RH  080%=      5-min Rain = 0
KWE1 141416Z 02012KT 25/21 A3012 RMK A01 T02490211  RH  079%=      5-min Rain = 0
KWE1 141417Z 02011KT 25/21 A3012 RMK A01 T02490211  RH  080%=      5-min Rain = 0
KWE1 141418Z 03011KT 25/21 A3012 RMK A01 T02490211  RH  080%=      5-min Rain = 0
KWE1 141419Z 03011KT 25/21 A3012 RMK A01 T02490212  RH  080%=      5-min Rain = 0
KWE1 141420Z 03012KT 25/21 A3012 RMK A01 T02490212  RH  080%=      5-min Rain = 0
KWE1 141421Z 03010KT 25/21 A3012 RMK A01 T02480211  RH  080%=      5-min Rain = 0
KWE1 141422Z 03009KT 25/21 A3012 RMK A01 T02480212  RH  080%=      5-min Rain = 0
KWE1 141423Z 03011KT 25/21 A3012 RMK A01 T02490212  RH  080%=      5-min Rain = 0
KWE1 141424Z 02010KT 25/21 A3012 RMK A01 T02500212  RH  079%=      5-min Rain = 0
KWE1 141425Z 03009KT 25/21 A3012 RMK A01 T02510213  RH  079%=      5-min Rain = 0
KWE1 141426Z 03008KT 25/21 A3012 RMK A01 T02520213  RH  079%=      5-min Rain = 0
KWE1 141427Z 03008KT 25/21 A3012 RMK A01 T02530212  RH  078%=      5-min Rain = 0
KWE1 141428Z 03008KT 25/21 A3012 RMK A01 T02530213  RH  078%=      5-min Rain = 0
KWE1 141429Z 02009KT 26/21 A3012 RMK A01 T02550213  RH  078%=      5-min Rain = 0
KWE1 141430Z 02011KT 25/21 A3012 RMK A01 T02540212  RH  077%=      5-min Rain = 0
KWE1 141431Z 02009KT 25/21 A3012 RMK A01 T02540212  RH  078%=      5-min Rain = 0
KWE1 141432Z 03009KT 25/21 A3012 RMK A01 T02540212  RH  078%=      5-min Rain = 0
KWE1 141433Z 03008KT 25/21 A3012 RMK A01 T02530212  RH  078%=      5-min Rain = 0
KWE1 141434Z 03006KT 25/21 A3012 RMK A01 T02530212  RH  078%=      5-min Rain = 0
KWE1 141435Z 03005KT 25/21 A3012 RMK A01 T02530212  RH  078%=      5-min Rain = 0
KWE1 141436Z 03009KT 25/21 A3013 RMK A01 T02530213  RH  078%=      5-min Rain = 0
KWE1 141437Z 03008KT 25/21 A3013 RMK A01 T02540212  RH  078%=      5-min Rain = 0
KWE1 141438Z 03010KT 25/21 A3013 RMK A01 T02530212  RH  078%=      5-min Rain = 0
KWE1 141439Z 03008KT 25/21 A3013 RMK A01 T02530212  RH  078%=      5-min Rain = 0
KWE1 141440Z 02008KT 25/21 A3013 RMK A01 T02520211  RH  078%=      5-min Rain = 0
KWE1 141441Z 02008KT 25/21 A3013 RMK A01 T02520211  RH  078%=      5-min Rain = 0
KWE1 141442Z 03008KT 25/21 A3013 RMK A01 T02530212  RH  078%=      5-min Rain = 0
KWE1 141443Z 03009KT 25/21 A3013 RMK A01 T02540212  RH  078%=      5-min Rain = 0
KWE1 141444Z 03008KT 26/21 A3013 RMK A01 T02560212  RH  077%=      5-min Rain = 0
KWE1 141445Z 01008KT 26/21 A3013 RMK A01 T02580212  RH  076%=      5-min Rain = 0
KWE1 141446Z 02008KT 26/21 A3013 RMK A01 T02590213  RH  076%=      5-min Rain = 0
KWE1 141447Z 03008KT 26/21 A3013 RMK A01 T02600213  RH  075%=      5-min Rain = 0
KWE1 141448Z 04005KT 26/21 A3013 RMK A01 T02610214  RH  075%=      5-min Rain = 0
KWE1 141449Z 02005KT 26/21 A3013 RMK A01 T02620214  RH  075%=      5-min Rain = 0
KWE1 141450Z 02006KT 27/22 A3013 RMK A01 T02650216  RH  074%=      5-min Rain = 0
KWE1 141451Z 04007KT 27/22 A3013 RMK A01 T02670215  RH  073%=      5-min Rain = 0
KWE1 141452Z 02007KT 27/21 A3013 RMK A01 T02670214  RH  073%=      5-min Rain = 0
KWE1 141453Z 02007KT 27/21 A3013 RMK A01 T02670214  RH  073%=      5-min Rain = 0
KWE1 141454Z 02008KT 27/21 A3013 RMK A01 T02660213  RH  073%=      5-min Rain = 0
KWE1 141455Z 04008KT 27/21 A3013 RMK A01 T02650214  RH  073%=      5-min Rain = 0
KWE1 141456Z 05007KT 27/21 A3013 RMK A01 T02650213  RH  073%=      5-min Rain = 0
KWE1 141457Z 03008KT 26/21 A3013 RMK A01 T02640213  RH  073%=      5-min Rain = 0
KWE1 141458Z 03007KT 26/21 A3013 RMK A01 T02640213  RH  073%=      5-min Rain = 0
KWE1 141459Z 03005KT 26/21 A3013 RMK A01 T02640213  RH  074%=      5-min Rain = 0
KWE1 141500Z 06005KT 26/21 A3013 RMK A01 T02630213  RH  074%=      5-min Rain = 0
KWE1 141501Z 05006KT 26/21 A3013 RMK A01 T02640214  RH  074%=      5-min Rain = 0
KWE1 141502Z 06006KT 27/22 A3013 RMK A01 T02660215  RH  073%=      5-min Rain = 0
KWE1 141503Z 06006KT 27/21 A3013 RMK A01 T02670214  RH  073%=      5-min Rain = 0
KWE1 141504Z 04006KT 27/21 A3013 RMK A01 T02670214  RH  073%=      5-min Rain = 0
KWE1 141505Z 01008KT 27/22 A3013 RMK A01 T02670215  RH  073%=      5-min Rain = 0
KWE1 141506Z 02006KT 27/22 A3013 RMK A01 T02680215  RH  073%=      5-min Rain = 0
KWE1 141507Z 04006KT 27/22 A3013 RMK A01 T02680216  RH  073%=      5-min Rain = 0
KWE1 141508Z 05006KT 27/22 A3013 RMK A01 T02700215  RH  072%=      5-min Rain = 0
KWE1 141509Z 03007KT 27/22 A3013 RMK A01 T02720215  RH  071%=      5-min Rain = 0
KWE1 141510Z 02007KT 27/22 A3013 RMK A01 T02700215  RH  072%=      5-min Rain = 0
KWE1 141511Z 02006KT 27/22 A3013 RMK A01 T02700216  RH  072%=      5-min Rain = 0
KWE1 141512Z 04005KT 27/22 A3013 RMK A01 T02700216  RH  072%=      5-min Rain = 0
KWE1 141513Z 02008KT 27/22 A3013 RMK A01 T02720216  RH  071%=      5-min Rain = 0
KWE1 141514Z 02007KT 27/22 A3013 RMK A01 T02700215  RH  072%=      5-min Rain = 0
KWE1 141515Z 02006KT 27/22 A3013 RMK A01 T02690215  RH  072%=      5-min Rain = 0
KWE1 141516Z 35008KT 27/22 A3013 RMK A01 T02690215  RH  072%=      5-min Rain = 0
KWE1 141517Z 00008KT 27/22 A3013 RMK A01 T02700215  RH  072%=      5-min Rain = 0
KWE1 141518Z 00007KT 27/22 A3013 RMK A01 T02700215  RH  072%=      5-min Rain = 0
KWE1 141519Z 01009KT 27/22 A3013 RMK A01 T02710215  RH  072%=      5-min Rain = 0
KWE1 141520Z 02009KT 27/22 A3013 RMK A01 T02720216  RH  071%=      5-min Rain = 0
KWE1 141521Z 02010KT 27/22 A3013 RMK A01 T02730216  RH  071%=      5-min Rain = 0
KWE1 141522Z 02009KT 27/22 A3013 RMK A01 T02740215  RH  070%=      5-min Rain = 0
KWE1 141523Z 01009KT 27/22 A3013 RMK A01 T02720216  RH  071%=      5-min Rain = 0
KWE1 141524Z 02008KT 27/21 A3013 RMK A01 T02710214  RH  071%=      5-min Rain = 0
KWE1 141525Z 02007KT 27/21 A3013 RMK A01 T02700214  RH  072%=      5-min Rain = 0
KWE1 141526Z 01009KT 27/22 A3013 RMK A01 T02720215  RH  071%=      5-min Rain = 0
KWE1 141527Z 02010KT 27/21 A3013 RMK A01 T02730214  RH  070%=      5-min Rain = 0
KWE1 141528Z 03009KT 27/22 A3013 RMK A01 T02730215  RH  070%=      5-min Rain = 0
KWE1 141529Z 02007KT 27/21 A3013 RMK A01 T02730214  RH  070%=      5-min Rain = 0
KWE1 141530Z 01005KT 27/21 A3013 RMK A01 T02730214  RH  070%=      5-min Rain = 0
KWE1 141531Z 36006KT 27/22 A3013 RMK A01 T02730215  RH  071%=      5-min Rain = 0
KWE1 141532Z 01007KT 28/22 A3013 RMK A01 T02750215  RH  070%=      5-min Rain = 0
KWE1 141533Z 01007KT 28/22 A3013 RMK A01 T02750215  RH  070%=      5-min Rain = 0
KWE1 141534Z 02006KT 28/21 A3013 RMK A01 T02750214  RH  070%=      5-min Rain = 0
KWE1 141535Z 01007KT 28/22 A3013 RMK A01 T02760216  RH  070%=      5-min Rain = 0
KWE1 141536Z 01009KT 28/22 A3013 RMK A01 T02780215  RH  068%=      5-min Rain = 0
KWE1 141537Z 00007KT 28/22 A3013 RMK A01 T02790216  RH  069%=      5-min Rain = 0
KWE1 141538Z 36011KT 28/22 A3013 RMK A01 T02790215  RH  068%=      5-min Rain = 0
KWE1 141539Z 35009KT 28/21 A3013 RMK A01 T02790214  RH  068%=      5-min Rain = 0
KWE1 141540Z 34009KT 28/21 A3013 RMK A01 T02790214  RH  068%=      5-min Rain = 0
KWE1 141541Z 01008KT 28/21 A3013 RMK A01 T02800214  RH  067%=      5-min Rain = 0
KWE1 141542Z 35009KT 28/21 A3013 RMK A01 T02790214  RH  067%=      5-min Rain = 0
KWE1 141543Z 36008KT 28/21 A3013 RMK A01 T02790213  RH  067%=      5-min Rain = 0
KWE1 141544Z 02008KT 28/21 A3013 RMK A01 T02780213  RH  068%=      5-min Rain = 0
KWE1 141545Z 02006KT 28/21 A3013 RMK A01 T02780214  RH  068%=      5-min Rain = 0
KWE1 141546Z 01005KT 28/21 A3013 RMK A01 T02780213  RH  068%=      5-min Rain = 0
KWE1 141547Z 35004KT 28/21 A3013 RMK A01 T02780212  RH  067%=      5-min Rain = 0
KWE1 141548Z 01008KT 28/21 A3013 RMK A01 T02770212  RH  068%=      5-min Rain = 0
KWE1 141549Z 01008KT 28/21 A3013 RMK A01 T02780212  RH  067%=      5-min Rain = 0
KWE1 141550Z 01007KT 28/21 A3013 RMK A01 T02790212  RH  067%=      5-min Rain = 0
KWE1 141551Z 03007KT 28/21 A3013 RMK A01 T02800213  RH  067%=      5-min Rain = 0
KWE1 141552Z 03006KT 28/22 A3013 RMK A01 T02800215  RH  068%=      5-min Rain = 0
KWE1 141553Z 03006KT 28/22 A3013 RMK A01 T02820215  RH  067%=      5-min Rain = 0
KWE1 141554Z 01008KT 28/21 A3013 RMK A01 T02840214  RH  066%=      5-min Rain = 0
KWE1 141555Z 00008KT 28/21 A3013 RMK A01 T02840214  RH  066%=      5-min Rain = 0
KWE1 141556Z 35006KT 29/21 A3013 RMK A01 T02850213  RH  065%=      5-min Rain = 0
KWE1 141557Z 36008KT 29/21 A3013 RMK A01 T02860214  RH  065%=      5-min Rain = 0
KWE1 141558Z 36009KT 29/21 A3013 RMK A01 T02880213  RH  064%=      5-min Rain = 0
KWE1 141559Z 36009KT 29/21 A3013 RMK A01 T02890213  RH  064%=      5-min Rain = 0
KWE1 141600Z 01007KT 29/22 A3013 RMK A01 T02880215  RH  065%=      5-min Rain = 0
KWE1 141601Z 36007KT 29/22 A3013 RMK A01 T02910216  RH  064%=      5-min Rain = 0
KWE1 141602Z 36009KT 29/22 A3013 RMK A01 T02930215  RH  063%=      5-min Rain = 0
KWE1 141603Z 36007KT 29/22 A3013 RMK A01 T02920215  RH  063%=      5-min Rain = 0
KWE1 141604Z 01007KT 29/21 A3013 RMK A01 T02910214  RH  063%=      5-min Rain = 0
KWE1 141605Z 34007KT 29/21 A3013 RMK A01 T02910214  RH  063%=      5-min Rain = 0
KWE1 141606Z 35006KT 29/21 A3013 RMK A01 T02880212  RH  063%=      5-min Rain = 0
KWE1 141607Z 01008KT 29/21 A3013 RMK A01 T02880213  RH  064%=      5-min Rain = 0
KWE1 141608Z 02009KT 29/21 A3013 RMK A01 T02890214  RH  064%=      5-min Rain = 0
KWE1 141609Z 02006KT 29/21 A3013 RMK A01 T02900214  RH  064%=      5-min Rain = 0
KWE1 141610Z 01006KT 29/21 A3013 RMK A01 T02910214  RH  063%=      5-min Rain = 0
KWE1 141611Z 01007KT 29/21 A3012 RMK A01 T02910214  RH  063%=      5-min Rain = 0
KWE1 141612Z 06004KT 29/22 A3012 RMK A01 T02910215  RH  064%=      5-min Rain = 0
KWE1 141613Z 04006KT 29/22 A3012 RMK A01 T02930216  RH  063%=      5-min Rain = 0
KWE1 141614Z 04007KT 29/22 A3013 RMK A01 T02940215  RH  062%=      5-min Rain = 0
KWE1 141615Z 03006KT 29/21 A3013 RMK A01 T02940214  RH  062%=      5-min Rain = 0
KWE1 141616Z 02005KT 29/21 A3013 RMK A01 T02940212  RH  061%=      5-min Rain = 0
KWE1 141617Z 04005KT 29/21 A3013 RMK A01 T02930212  RH  062%=      5-min Rain = 0
KWE1 141618Z 04005KT 29/21 A3013 RMK A01 T02920214  RH  063%=      5-min Rain = 0
KWE1 141619Z 03006KT 29/21 A3013 RMK A01 T02920213  RH  062%=      5-min Rain = 0
KWE1 141620Z 03007KT 29/21 A3013 RMK A01 T02940214  RH  062%=      5-min Rain = 0
KWE1 141621Z 04007KT 30/21 A3013 RMK A01 T02950211  RH  061%=      5-min Rain = 0
KWE1 141622Z 04006KT 29/21 A3013 RMK A01 T02930210  RH  061%=      5-min Rain = 0
KWE1 141623Z 05003KT 29/21 A3012 RMK A01 T02920210  RH  061%=      5-min Rain = 0
KWE1 141624Z 05003KT 29/21 A3012 RMK A01 T02920210  RH  061%=      5-min Rain = 0
KWE1 141625Z 05005KT 29/21 A3012 RMK A01 T02940212  RH  061%=      5-min Rain = 0
KWE1 141626Z 04004KT 30/21 A3012 RMK A01 T02960211  RH  060%=      5-min Rain = 0
KWE1 141627Z 03006KT 30/21 A3012 RMK A01 T02960211  RH  060%=      5-min Rain = 0
KWE1 141628Z 02008KT 30/21 A3012 RMK A01 T02970212  RH  061%=      5-min Rain = 0
KWE1 141629Z 03009KT 30/21 A3012 RMK A01 T02970212  RH  060%=      5-min Rain = 0
KWE1 141630Z 05006KT 30/21 A3012 RMK A01 T02960211  RH  060%=      5-min Rain = 0
KWE1 141631Z 06007KT 30/21 A3012 RMK A01 T02960208  RH  059%=      5-min Rain = 0
KWE1 141632Z 06006KT 30/21 A3012 RMK A01 T02970208  RH  059%=      5-min Rain = 0
KWE1 141633Z 04007KT 30/21 A3012 RMK A01 T02980210  RH  059%=      5-min Rain = 0
KWE1 141634Z 04007KT 30/21 A3012 RMK A01 T02980212  RH  060%=      5-min Rain = 0
KWE1 141635Z 05005KT 30/21 A3012 RMK A01 T02970211  RH  060%=      5-min Rain = 0
KWE1 141636Z 07007KT 30/21 A3012 RMK A01 T02970210  RH  060%=      5-min Rain = 0
KWE1 141637Z 04005KT 30/21 A3012 RMK A01 T02970212  RH  060%=      5-min Rain = 0
KWE1 141638Z 03005KT 30/21 A3012 RMK A01 T02960213  RH  061%=      5-min Rain = 0
KWE1 141639Z 01006KT 30/22 A3012 RMK A01 T02970215  RH  061%=      5-min Rain = 0
KWE1 141640Z 04004KT 30/21 A3012 RMK A01 T02990214  RH  060%=      5-min Rain = 0
KWE1 141641Z 06003KT 30/21 A3012 RMK A01 T03000214  RH  060%=      5-min Rain = 0
KWE1 141642Z 02006KT 30/22 A3012 RMK A01 T03000216  RH  061%=      5-min Rain = 0
KWE1 141643Z 01007KT 30/21 A3012 RMK A01 T03030213  RH  059%=      5-min Rain = 0
KWE1 141644Z 01007G12KT 31/21 A3012 RMK A01 T03050212  RH  058%=      5-min Rain = 0
KWE1 141645Z 02010KT 31/21 A3012 RMK A01 T03050214  RH  058%=      5-min Rain = 0
KWE1 141646Z 02007KT 30/21 A3012 RMK A01 T03040212  RH  058%=      5-min Rain = 0
KWE1 141647Z 01007KT 30/21 A3012 RMK A01 T03010212  RH  059%=      5-min Rain = 0
KWE1 141648Z 36006KT 30/21 A3012 RMK A01 T03030212  RH  058%=      5-min Rain = 0
KWE1 141649Z 00005KT 30/21 A3012 RMK A01 T03030211  RH  058%=      5-min Rain = 0
KWE1 141650Z 02006KT 30/21 A3012 RMK A01 T03030212  RH  058%=      5-min Rain = 0
KWE1 141651Z 01008KT 30/21 A3012 RMK A01 T03030214  RH  059%=      5-min Rain = 0
KWE1 141652Z 01010KT 31/21 A3012 RMK A01 T03070212  RH  057%=      5-min Rain = 0
KWE1 141653Z 01008KT 31/21 A3012 RMK A01 T03050208  RH  056%=      5-min Rain = 0
KWE1 141654Z 35007KT 30/21 A3011 RMK A01 T03010207  RH  057%=      5-min Rain = 0
KWE1 141655Z 34005KT 30/21 A3011 RMK A01 T03000207  RH  058%=      5-min Rain = 0
KWE1 141656Z 35005KT 30/21 A3011 RMK A01 T03020209  RH  058%=      5-min Rain = 0
KWE1 141657Z 01009KT 31/21 A3011 RMK A01 T03050210  RH  057%=      5-min Rain = 0
KWE1 141658Z 03007KT 31/21 A3011 RMK A01 T03070212  RH  057%=      5-min Rain = 0
KWE1 141659Z 01009KT 31/21 A3012 RMK A01 T03090213  RH  057%=      5-min Rain = 0
KWE1 141700Z 03008KT 31/21 A3012 RMK A01 T03070212  RH  057%=      5-min Rain = 0
KWE1 141701Z 02008KT 31/21 A3012 RMK A01 T03070213  RH  057%=      5-min Rain = 0
KWE1 141702Z 00007KT 31/21 A3011 RMK A01 T03090211  RH  056%=      5-min Rain = 0
KWE1 141703Z 36008KT 31/21 A3011 RMK A01 T03090211  RH  056%=      5-min Rain = 0
KWE1 141704Z 00011KT 31/21 A3011 RMK A01 T03090209  RH  055%=      5-min Rain = 0
KWE1 141705Z 02007KT 31/21 A3011 RMK A01 T03090211  RH  056%=      5-min Rain = 0
KWE1 141706Z 05008KT 31/21 A3011 RMK A01 T03100213  RH  056%=      5-min Rain = 0
KWE1 141707Z 04007KT 31/21 A3011 RMK A01 T03090214  RH  057%=      5-min Rain = 0
KWE1 141708Z 02007KT 31/21 A3011 RMK A01 T03080214  RH  057%=      5-min Rain = 0
KWE1 141709Z 01006KT 31/21 A3011 RMK A01 T03080213  RH  057%=      5-min Rain = 0
KWE1 141710Z 36008KT 31/21 A3011 RMK A01 T03110213  RH  056%=      5-min Rain = 0
KWE1 141711Z 01007KT 31/21 A3011 RMK A01 T03130214  RH  056%=      5-min Rain = 0
KWE1 141712Z 05008KT 32/21 A3011 RMK A01 T03150210  RH  054%=      5-min Rain = 0
KWE1 141713Z 04006KT 31/21 A3011 RMK A01 T03130210  RH  054%=      5-min Rain = 0
KWE1 141714Z 06008KT 31/21 A3011 RMK A01 T03120209  RH  054%=      5-min Rain = 0
KWE1 141715Z 07008KT 31/21 A3011 RMK A01 T03110209  RH  055%=      5-min Rain = 0
KWE1 141716Z 05006KT 31/21 A3011 RMK A01 T03110209  RH  055%=      5-min Rain = 0
KWE1 141717Z 03008KT 31/21 A3011 RMK A01 T03140213  RH  055%=      5-min Rain = 0
KWE1 141718Z 01008KT 32/21 A3011 RMK A01 T03150213  RH  055%=      5-min Rain = 0
KWE1 141719Z 35008KT 32/21 A3011 RMK A01 T03160213  RH  055%=      5-min Rain = 0
KWE1 141720Z 36007KT 32/21 A3011 RMK A01 T03150213  RH  055%=      5-min Rain = 0
KWE1 141721Z 01008KT 31/21 A3011 RMK A01 T03130212  RH  055%=      5-min Rain = 0
KWE1 141722Z 01010KT 31/21 A3011 RMK A01 T03110210  RH  055%=      5-min Rain = 0
KWE1 141723Z 01009KT 31/21 A3011 RMK A01 T03080208  RH  055%=      5-min Rain = 0
KWE1 141724Z 36010KT 31/21 A3011 RMK A01 T03060208  RH  056%=      5-min Rain = 0
KWE1 141725Z 01008KT 31/21 A3011 RMK A01 T03060206  RH  055%=      5-min Rain = 0
KWE1 141726Z 03009KT 31/21 A3011 RMK A01 T03110210  RH  055%=      5-min Rain = 0
KWE1 141727Z 03006KT 31/21 A3011 RMK A01 T03140209  RH  054%=      5-min Rain = 0
KWE1 141728Z 03006KT 31/21 A3011 RMK A01 T03140208  RH  054%=      5-min Rain = 0
KWE1 141729Z 35005KT 31/21 A3011 RMK A01 T03130210  RH  054%=      5-min Rain = 0
KWE1 141730Z 03008KT 31/21 A3011 RMK A01 T03140211  RH  054%=      5-min Rain = 0
KWE1 141731Z 03006KT 31/21 A3011 RMK A01 T03140213  RH  055%=      5-min Rain = 0
KWE1 141732Z 02005KT 31/21 A301 RMK A01 T03130213  RH  055%=      5-min Rain = 0
KWE1 141733Z 01006KT 31/21 A301 RMK A01 T03120212  RH  055%=      5-min Rain = 0
KWE1 141734Z 00006KT 31/21 A301 RMK A01 T03100211  RH  056%=      5-min Rain = 0
KWE1 141735Z 01011KT 31/21 A301 RMK A01 T03120212  RH  055%=      5-min Rain = 0
KWE1 141736Z 01010KT 32/21 A301 RMK A01 T03150211  RH  054%=      5-min Rain = 0
KWE1 141737Z 02007KT 32/21 A301 RMK A01 T03160210  RH  053%=      5-min Rain = 0
KWE1 141738Z 04008KT 32/21 A301 RMK A01 T03160211  RH  054%=      5-min Rain = 0
KWE1 141739Z 02007KT 31/21 A301 RMK A01 T03140212  RH  055%=      5-min Rain = 0
KWE1 141740Z 03005KT 31/21 A301 RMK A01 T03110208  RH  054%=      5-min Rain = 0
KWE1 141741Z 02008KT 31/21 A301 RMK A01 T03090209  RH  055%=      5-min Rain = 0
KWE1 141742Z 02007KT 31/21 A301 RMK A01 T03080207  RH  055%=      5-min Rain = 0
KWE1 141743Z 02005KT 31/21 A301 RMK A01 T03060207  RH  056%=      5-min Rain = 0
KWE1 141744Z 03011KT 31/21 A301 RMK A01 T03060210  RH  056%=      5-min Rain = 0
KWE1 141745Z 02008G13KT 31/21 A301 RMK A01 T03100211  RH  056%=      5-min Rain = 0
KWE1 141746Z 01007KT 31/21 A301 RMK A01 T03140210  RH  054%=      5-min Rain = 0
KWE1 141747Z 03006G11KT 31/21 A301 RMK A01 T03140213  RH  055%=      5-min Rain = 0
KWE1 141748Z 04010KT 32/21 A301 RMK A01 T03190212  RH  053%=      5-min Rain = 0
KWE1 141749Z 02013KT 32/21 A301 RMK A01 T03180212  RH  053%=      5-min Rain = 0
KWE1 141750Z 03009KT 32/21 A301 RMK A01 T03200212  RH  053%=      5-min Rain = 0
KWE1 141751Z 02008KT 32/21 A301 RMK A01 T03200211  RH  053%=      5-min Rain = 0
KWE1 141752Z 02007KT 32/21 A301 RMK A01 T03160209  RH  053%=      5-min Rain = 0
KWE1 141753Z 03008KT 32/21 A301 RMK A01 T03150209  RH  054%=      5-min Rain = 0
KWE1 141754Z 01005KT 32/21 A301 RMK A01 T03160208  RH  053%=      5-min Rain = 0
KWE1 141755Z 35004KT 32/21 A301 RMK A01 T03170207  RH  052%=      5-min Rain = 0
KWE1 141756Z 01005KT 32/21 A301 RMK A01 T03170209  RH  053%=      5-min Rain = 0
KWE1 141757Z 01008KT 32/21 A301 RMK A01 T03190210  RH  053%=      5-min Rain = 0
KWE1 141758Z 01006KT 32/21 A301 RMK A01 T03170210  RH  053%=      5-min Rain = 0
KWE1 141759Z 01007KT 32/21 A301 RMK A01 T03160210  RH  053%=      5-min Rain = 0
KWE1 141800Z 04005KT 32/21 A301 RMK A01 T03160210  RH  054%=      5-min Rain = 0
KWE1 141801Z 06006KT 32/21 A301 RMK A01 T03180212  RH  053%=      5-min Rain = 0
KWE1 141802Z 07004KT 32/21 A3009 RMK A01 T03200211  RH  053%=      5-min Rain = 0
KWE1 141803Z 01002KT 32/21 A3009 RMK A01 T03200210  RH  052%=      5-min Rain = 0
KWE1 141804Z 03007KT 32/21 A3009 RMK A01 T03210213  RH  053%=      5-min Rain = 0
KWE1 141805Z 05004KT 32/21 A3009 RMK A01 T03230211  RH  052%=      5-min Rain = 0
KWE1 141806Z 02009G14KT 32/21 A3009 RMK A01 T03220211  RH  052%=      5-min Rain = 0
KWE1 141807Z 05006KT 32/21 A3009 RMK A01 T03220211  RH  052%=      5-min Rain = 0
KWE1 141808Z 06008KT 32/21 A3009 RMK A01 T03240211  RH  051%=      5-min Rain = 0
KWE1 141809Z 07006KT 33/21 A3009 RMK A01 T03260211  RH  051%=      5-min Rain = 0
KWE1 141810Z 04005KT 33/21 A3009 RMK A01 T03290214  RH  051%=      5-min Rain = 0
KWE1 141811Z 04007KT 33/22 A3009 RMK A01 T03330218  RH  051%=      5-min Rain = 0
KWE1 141812Z 03009KT 34/21 A3009 RMK A01 T03350211  RH  048%=      5-min Rain = 0
KWE1 141813Z 02007KT 33/21 A3009 RMK A01 T03290209  RH  050%=      5-min Rain = 0
KWE1 141814Z 35006KT 33/21 A3009 RMK A01 T03250208  RH  050%=      5-min Rain = 0
KWE1 141815Z 00007KT 33/21 A3009 RMK A01 T03250209  RH  050%=      5-min Rain = 0
KWE1 141816Z 01009KT 33/21 A3008 RMK A01 T03270209  RH  050%=      5-min Rain = 0
KWE1 141817Z 05010KT 33/21 A3009 RMK A01 T03270209  RH  050%=      5-min Rain = 0
KWE1 141818Z 04009KT 33/21 A3009 RMK A01 T03270210  RH  050%=      5-min Rain = 0
KWE1 141819Z 05007KT 33/21 A3009 RMK A01 T03280209  RH  049%=      5-min Rain = 0
KWE1 141820Z 01008KT 33/21 A3008 RMK A01 T03280209  RH  050%=      5-min Rain = 0
KWE1 141821Z 06006KT 33/21 A3008 RMK A01 T03280208  RH  049%=      5-min Rain = 0
KWE1 141822Z 08005KT 33/21 A3008 RMK A01 T03280208  RH  049%=      5-min Rain = 0
KWE1 141823Z 03005KT 33/21 A3008 RMK A01 T03290210  RH  049%=      5-min Rain = 0
KWE1 141824Z 02010KT 33/21 A3008 RMK A01 T03310208  RH  048%=      5-min Rain = 0
KWE1 141825Z 02011KT 33/21 A3008 RMK A01 T03300207  RH  048%=      5-min Rain = 0
KWE1 141826Z 03009KT 33/21 A3008 RMK A01 T03300205  RH  048%=      5-min Rain = 0
KWE1 141827Z 04006KT 33/21 A3008 RMK A01 T03300207  RH  049%=      5-min Rain = 0
KWE1 141828Z 04007KT 33/21 A3008 RMK A01 T03320205  RH  048%=      5-min Rain = 0
KWE1 141829Z 04007KT 33/20 A3008 RMK A01 T03280204  RH  048%=      5-min Rain = 0
KWE1 141830Z 04008KT 33/21 A3008 RMK A01 T03260207  RH  049%=      5-min Rain = 0
KWE1 141831Z 04008KT 33/21 A3008 RMK A01 T03260207  RH  049%=      5-min Rain = 0
KWE1 141832Z 03007KT 32/21 A3008 RMK A01 T03230205  RH  050%=      5-min Rain = 0
KWE1 141833Z 01009KT 32/21 A3008 RMK A01 T03190205  RH  051%=      5-min Rain = 0
KWE1 141834Z 02006G12KT 32/20 A3008 RMK A01 T03170202  RH  051%=      5-min Rain = 0
KWE1 141835Z 03004KT 32/20 A3007 RMK A01 T03160203  RH  051%=      5-min Rain = 0
KWE1 141836Z 05009KT 32/21 A3008 RMK A01 T03190205  RH  051%=      5-min Rain = 0
KWE1 141837Z 06005KT 32/21 A3008 RMK A01 T03200206  RH  051%=      5-min Rain = 0
KWE1 141838Z 09008KT 32/21 A3007 RMK A01 T03190206  RH  051%=      5-min Rain = 0
KWE1 141839Z 10010KT 32/21 A3007 RMK A01 T03200207  RH  051%=      5-min Rain = 0
KWE1 141840Z 08014KT 33/21 A3007 RMK A01 T03250205  RH  049%=      5-min Rain = 0
KWE1 141841Z 09008KT 33/20 A3007 RMK A01 T03270202  RH  048%=      5-min Rain = 0
KWE1 141842Z 09006KT 33/20 A3007 RMK A01 T03260202  RH  048%=      5-min Rain = 0
KWE1 141843Z 10006KT 33/20 A3007 RMK A01 T03260202  RH  048%=      5-min Rain = 0
KWE1 141844Z 09008G13KT 33/20 A3007 RMK A01 T03280203  RH  048%=      5-min Rain = 0
KWE1 141845Z 10010KT 33/20 A3007 RMK A01 T03300204  RH  048%=      5-min Rain = 0
KWE1 141846Z 05012KT 33/20 A3007 RMK A01 T03310203  RH  047%=      5-min Rain = 0
KWE1 141847Z 03011KT 33/20 A3007 RMK A01 T03310202  RH  047%=      5-min Rain = 0
KWE1 141848Z 04009KT 33/20 A3007 RMK A01 T03310204  RH  047%=      5-min Rain = 0
KWE1 141849Z 03008G13KT 33/20 A3007 RMK A01 T03330203  RH  047%=      5-min Rain = 0
KWE1 141850Z 02008KT 33/21 A3007 RMK A01 T03310205  RH  048%=      5-min Rain = 0
KWE1 141851Z 03010G15KT 33/21 A3007 RMK A01 T03320205  RH  047%=      5-min Rain = 0
KWE1 141852Z 07010KT 33/21 A3007 RMK A01 T03330205  RH  047%=      5-min Rain = 0
KWE1 141853Z 07004KT 33/20 A3006 RMK A01 T03310204  RH  047%=      5-min Rain = 0
KWE1 141854Z 07003KT 33/20 A3006 RMK A01 T03290204  RH  048%=      5-min Rain = 0
KWE1 141855Z 05005KT 33/21 A3006 RMK A01 T03290205  RH  048%=      5-min Rain = 0
KWE1 141856Z 07007KT 33/21 A3006 RMK A01 T03290205  RH  048%=      5-min Rain = 0
KWE1 141857Z 10007KT 33/21 A3006 RMK A01 T03290205  RH  048%=      5-min Rain = 0
KWE1 141858Z 07012KT 33/21 A3006 RMK A01 T03290205  RH  048%=      5-min Rain = 0
KWE1 141859Z 07014KT 33/20 A3006 RMK A01 T03340203  RH  046%=      5-min Rain = 0
KWE1 141900Z 06011KT 34/20 A3006 RMK A01 T03350203  RH  046%=      5-min Rain = 0
KWE1 141901Z 06009KT 33/20 A3006 RMK A01 T03320204  RH  047%=      5-min Rain = 0
KWE1 141902Z 04010KT 33/21 A3006 RMK A01 T03310205  RH  048%=      5-min Rain = 0
KWE1 141903Z 03007KT 33/21 A3006 RMK A01 T03300205  RH  048%=      5-min Rain = 0
KWE1 141904Z 03008KT 33/20 A3006 RMK A01 T03280204  RH  048%=      5-min Rain = 0
KWE1 141905Z 04009KT 33/21 A3006 RMK A01 T03280206  RH  049%=      5-min Rain = 0
KWE1 141906Z 05007KT 33/20 A3006 RMK A01 T03290204  RH  048%=      5-min Rain = 0
KWE1 141907Z 05008KT 33/21 A3006 RMK A01 T03300205  RH  048%=      5-min Rain = 0
KWE1 141908Z 03007KT 33/20 A3006 RMK A01 T03310204  RH  047%=      5-min Rain = 0
KWE1 141909Z 05006KT 33/20 A3006 RMK A01 T03310203  RH  047%=      5-min Rain = 0
KWE1 141910Z 04005KT 33/20 A3006 RMK A01 T03300203  RH  047%=      5-min Rain = 0
KWE1 141911Z 02008KT 33/20 A3006 RMK A01 T03320204  RH  047%=      5-min Rain = 0
KWE1 141912Z 03009KT 34/21 A3006 RMK A01 T03350206  RH  047%=      5-min Rain = 0
KWE1 141913Z 02010KT 34/21 A3006 RMK A01 T03390205  RH  046%=      5-min Rain = 0
KWE1 141914Z 01010KT 34/21 A3006 RMK A01 T03410205  RH  045%=      5-min Rain = 0
KWE1 141915Z 01009KT 34/21 A3006 RMK A01 T03430205  RH  044%=      5-min Rain = 0
KWE1 141916Z 36009KT 34/20 A3006 RMK A01 T03440203  RH  044%=      5-min Rain = 0
KWE1 141917Z 01010KT 34/20 A3006 RMK A01 T03440204  RH  044%=      5-min Rain = 0
KWE1 141918Z 03012KT 34/21 A3006 RMK A01 T03440206  RH  045%=      5-min Rain = 0
KWE1 141919Z 06010KT 34/21 A3006 RMK A01 T03430206  RH  045%=      5-min Rain = 0
KWE1 141920Z 03009KT 34/21 A3006 RMK A01 T03410206  RH  045%=      5-min Rain = 0
KWE1 141921Z 04008KT 34/21 A3006 RMK A01 T03410208  RH  046%=      5-min Rain = 0
KWE1 141922Z 03007KT 34/21 A3006 RMK A01 T03410206  RH  045%=      5-min Rain = 0
KWE1 141923Z 01006KT 34/21 A3006 RMK A01 T03390205  RH  045%=      5-min Rain = 0
KWE1 141924Z 01004KT 34/20 A3006 RMK A01 T03350201  RH  045%=      5-min Rain = 0
KWE1 141925Z 36004KT 33/21 A3006 RMK A01 T03340205  RH  047%=      5-min Rain = 0
KWE1 141926Z 01004KT 34/20 A3005 RMK A01 T03370203  RH  045%=      5-min Rain = 0
KWE1 141927Z 02004KT 34/20 A3005 RMK A01 T03370204  RH  046%=      5-min Rain = 0
KWE1 141928Z 07008KT 34/21 A3005 RMK A01 T03380206  RH  046%=      5-min Rain = 0
KWE1 141929Z 08009KT 34/20 A3005 RMK A01 T03400202  RH  045%=      5-min Rain = 0
KWE1 141930Z 08009KT 34/20 A3005 RMK A01 T03410201  RH  044%=      5-min Rain = 0
KWE1 141931Z 06009KT 34/20 A3005 RMK A01 T03430203  RH  044%=      5-min Rain = 0
KWE1 141932Z 04010KT 34/21 A3005 RMK A01 T03440205  RH  044%=      5-min Rain = 0
KWE1 141933Z 03007KT 34/21 A3005 RMK A01 T03420206  RH  045%=      5-min Rain = 0
KWE1 141934Z 03005KT 34/21 A3005 RMK A01 T03410206  RH  045%=      5-min Rain = 0
KWE1 141935Z 03010KT 34/21 A3005 RMK A01 T03400206  RH  045%=      5-min Rain = 0
KWE1 141936Z 05006KT 34/20 A3005 RMK A01 T03400202  RH  045%=      5-min Rain = 0
KWE1 141937Z 35004KT 34/20 A3005 RMK A01 T03380204  RH  045%=      5-min Rain = 0
KWE1 141938Z 31003KT 34/20 A3005 RMK A01 T03390202  RH  045%=      5-min Rain = 0
KWE1 141939Z 02003KT 34/20 A3005 RMK A01 T03410203  RH  045%=      5-min Rain = 0
KWE1 141940Z 05003KT 34/20 A3005 RMK A01 T03410204  RH  045%=      5-min Rain = 0
KWE1 141941Z 04003KT 34/20 A3005 RMK A01 T03410200  RH  044%=      5-min Rain = 0
KWE1 141942Z 04006KT 34/20 A3005 RMK A01 T03410202  RH  044%=      5-min Rain = 0
KWE1 141943Z 04006KT 34/20 A3005 RMK A01 T03410201  RH  044%=      5-min Rain = 0
KWE1 141944Z 04008G13KT 34/20 A3005 RMK A01 T03410203  RH  044%=      5-min Rain = 0
KWE1 141945Z 03011KT 35/20 A3005 RMK A01 T03460203  RH  043%=      5-min Rain = 0
KWE1 141946Z 02009KT 35/20 A3005 RMK A01 T03450200  RH  043%=      5-min Rain = 0
KWE1 141947Z 02005KT 34/20 A3004 RMK A01 T03420199  RH  043%=      5-min Rain = 0
KWE1 141948Z 05007KT 34/20 A3004 RMK A01 T03400201  RH  044%=      5-min Rain = 0
KWE1 141949Z 04006KT 34/20 A3004 RMK A01 T03410202  RH  044%=      5-min Rain = 0
KWE1 141950Z 01006KT 34/20 A3004 RMK A01 T03390202  RH  045%=      5-min Rain = 0
KWE1 141951Z 04007G12KT 34/20 A3004 RMK A01 T03380203  RH  045%=      5-min Rain = 0
KWE1 141952Z 03013KT 34/20 A3004 RMK A01 T03380202  RH  045%=      5-min Rain = 0
KWE1 141953Z 04012KT 34/20 A3004 RMK A01 T03350201  RH  045%=      5-min Rain = 0
KWE1 141954Z 04009KT 33/20 A3004 RMK A01 T03340203  RH  046%=      5-min Rain = 0
KWE1 141955Z 06008KT 33/20 A3004 RMK A01 T03340202  RH  046%=      5-min Rain = 0
KWE1 141956Z 05011KT 33/20 A3004 RMK A01 T03330200  RH  046%=      5-min Rain = 0
KWE1 141957Z 03013KT 34/20 A3004 RMK A01 T03360202  RH  045%=      5-min Rain = 0
KWE1 141958Z 05013KT 34/20 A3004 RMK A01 T03390202  RH  045%=      5-min Rain = 0
KWE1 141959Z 02011KT 34/20 A3004 RMK A01 T03380201  RH  045%=      5-min Rain = 0
KWE1 142000Z 03007KT 34/20 A3004 RMK A01 T03370202  RH  045%=      5-min Rain = 0
KWE1 142001Z 07008KT 34/20 A3004 RMK A01 T03400203  RH  045%=      5-min Rain = 0
KWE1 142002Z 08012KT 34/20 A3004 RMK A01 T03440202  RH  044%=      5-min Rain = 0
KWE1 142003Z 07010KT 34/20 A3004 RMK A01 T03440202  RH  043%=      5-min Rain = 0
KWE1 142004Z 09008KT 34/20 A3004 RMK A01 T03440202  RH  043%=      5-min Rain = 0
KWE1 142005Z 10006KT 35/20 A3004 RMK A01 T03450200  RH  043%=      5-min Rain = 0
KWE1 142006Z 07005G11KT 35/20 A3004 RMK A01 T03460203  RH  043%=      5-min Rain = 0
KWE1 142007Z 07011KT 35/20 A3004 RMK A01 T03480202  RH  043%=      5-min Rain = 0
KWE1 142008Z 06009G15KT 35/20 A3004 RMK A01 T03460201  RH  043%=      5-min Rain = 0
KWE1 142009Z 05007G12KT 34/20 A3004 RMK A01 T03440199  RH  043%=      5-min Rain = 0
KWE1 142010Z 06011KT 34/20 A3004 RMK A01 T03420200  RH  043%=      5-min Rain = 0
KWE1 142011Z 04010KT 34/20 A3004 RMK A01 T03430201  RH  043%=      5-min Rain = 0
KWE1 142012Z 04011KT 34/20 A3004 RMK A01 T03440201  RH  043%=      5-min Rain = 0
KWE1 142013Z 05009KT 34/20 A3004 RMK A01 T03430198  RH  043%=      5-min Rain = 0
KWE1 142014Z 04005KT 34/20 A3003 RMK A01 T03410196  RH  043%=      5-min Rain = 0
KWE1 142015Z 05007KT 34/20 A3003 RMK A01 T03400198  RH  043%=      5-min Rain = 0
KWE1 142016Z 04004KT 34/20 A3003 RMK A01 T03410197  RH  043%=      5-min Rain = 0
KWE1 142017Z 04002KT 34/20 A3003 RMK A01 T03410196  RH  043%=      5-min Rain = 0
KWE1 142018Z 02006KT 34/20 A3003 RMK A01 T03430200  RH  043%=      5-min Rain = 0
KWE1 142019Z 03010KT 35/20 A3003 RMK A01 T03460200  RH  042%=      5-min Rain = 0
KWE1 142020Z 09005KT 35/20 A3003 RMK A01 T03460199  RH  042%=      5-min Rain = 0
KWE1 142021Z 07008KT 35/20 A3003 RMK A01 T03460198  RH  042%=      5-min Rain = 0
KWE1 142022Z 07009G14KT 35/20 A3003 RMK A01 T03470195  RH  041%=      5-min Rain = 0
KWE1 142023Z 08012KT 35/19 A3003 RMK A01 T03500189  RH  039%=      5-min Rain = 0
KWE1 142024Z 08010KT 35/19 A3002 RMK A01 T03490188  RH  039%=      5-min Rain = 0
KWE1 142025Z 09009KT 35/19 A3002 RMK A01 T03480188  RH  039%=      5-min Rain = 0
KWE1 142026Z 09009KT 35/19 A3002 RMK A01 T03470189  RH  039%=      5-min Rain = 0
KWE1 142027Z 07008KT 35/19 A3002 RMK A01 T03490191  RH  040%=      5-min Rain = 0
KWE1 142028Z 11004KT 35/19 A3002 RMK A01 T03480194  RH  040%=      5-min Rain = 0
KWE1 142029Z 12005KT 35/19 A3002 RMK A01 T03470194  RH  041%=      5-min Rain = 0
KWE1 142030Z 07005KT 35/20 A3002 RMK A01 T03490196  RH  041%=      5-min Rain = 0
KWE1 142031Z 05007KT 35/20 A3002 RMK A01 T03510197  RH  041%=      5-min Rain = 0
KWE1 142032Z 07010KT 35/20 A3002 RMK A01 T03510196  RH  040%=      5-min Rain = 0
KWE1 142033Z 06010KT 35/20 A3002 RMK A01 T03480195  RH  041%=      5-min Rain = 0
KWE1 142034Z 05006KT 35/20 A3002 RMK A01 T03460196  RH  041%=      5-min Rain = 0
KWE1 142035Z 05007KT 35/20 A3002 RMK A01 T03450196  RH  042%=      5-min Rain = 0
KWE1 142036Z 05010KT 35/20 A3002 RMK A01 T03450198  RH  042%=      5-min Rain = 0
KWE1 142037Z 05010KT 35/20 A3002 RMK A01 T03470199  RH  042%=      5-min Rain = 0
KWE1 142038Z 06009KT 35/20 A3002 RMK A01 T03480198  RH  041%=      5-min Rain = 0
KWE1 142039Z 07007G13KT 35/20 A3001 RMK A01 T03480197  RH  041%=      5-min Rain = 0
KWE1 142040Z 07008KT 35/20 A3001 RMK A01 T03480196  RH  041%=      5-min Rain = 0
KWE1 142041Z 04007KT 35/20 A3001 RMK A01 T03470197  RH  041%=      5-min Rain = 0
KWE1 142042Z 04005KT 35/20 A3001 RMK A01 T03480199  RH  042%=      5-min Rain = 0
KWE1 142043Z 04006KT 35/20 A3001 RMK A01 T03500198  RH  041%=      5-min Rain = 0
KWE1 142044Z 07007KT 35/20 A3001 RMK A01 T03490199  RH  041%=      5-min Rain = 0
KWE1 142045Z 09007KT 35/20 A3001 RMK A01 T03520200  RH  041%=      5-min Rain = 0
KWE1 142046Z 08010KT 36/20 A3001 RMK A01 T03580198  RH  039%=      5-min Rain = 0
KWE1 142047Z 07011G16KT 36/20 A3001 RMK A01 T03600199  RH  039%=      5-min Rain = 0
KWE1 142048Z 07014G19KT 36/20 A3001 RMK A01 T03590199  RH  039%=      5-min Rain = 0
KWE1 142049Z 08011G16KT 35/20 A3001 RMK A01 T03540196  RH  040%=      5-min Rain = 0
KWE1 142050Z 05011KT 35/20 A3001 RMK A01 T03520199  RH  041%=      5-min Rain = 0
KWE1 142051Z 04011KT 35/20 A3001 RMK A01 T03510198  RH  041%=      5-min Rain = 0
KWE1 142052Z 04009KT 35/20 A3001 RMK A01 T03510198  RH  041%=      5-min Rain = 0
KWE1 142053Z 03004KT 35/20 A3001 RMK A01 T03500196  RH  041%=      5-min Rain = 0
KWE1 142054Z 04004KT 35/20 A30 RMK A01 T03470196  RH  041%=      5-min Rain = 0
KWE1 142055Z 02006KT 35/20 A30 RMK A01 T03470200  RH  042%=      5-min Rain = 0
KWE1 142056Z 02009KT 35/20 A30 RMK A01 T03500199  RH  041%=      5-min Rain = 0
KWE1 142057Z 02009KT 35/20 A30 RMK A01 T03520199  RH  041%=      5-min Rain = 0
KWE1 142058Z 04007KT 35/20 A30 RMK A01 T03510201  RH  041%=      5-min Rain = 0
KWE1 142059Z 06008KT 35/20 A30 RMK A01 T03530201  RH  041%=      5-min Rain = 0
KWE1 142100Z 07013KT 36/20 A30 RMK A01 T03550201  RH  041%=      5-min Rain = 0
KWE1 142101Z 08010KT 36/20 A30 RMK A01 T03570198  RH  039%=      5-min Rain = 0
KWE1 142102Z 09008KT 36/20 A30 RMK A01 T03560197  RH  039%=      5-min Rain = 0
KWE1 142103Z 10012KT 35/20 A30 RMK A01 T03540198  RH  040%=      5-min Rain = 0
KWE1 142104Z 12008KT 35/20 A30 RMK A01 T03540196  RH  039%=      5-min Rain = 0
KWE1 142105Z 11012KT 35/20 A30 RMK A01 T03520196  RH  040%=      5-min Rain = 0
KWE1 142106Z 10013KT 35/20 A30 RMK A01 T03520197  RH  040%=      5-min Rain = 0
KWE1 142107Z 09009KT 35/20 A30 RMK A01 T03520197  RH  040%=      5-min Rain = 0
KWE1 142108Z 05008G13KT 36/20 A30 RMK A01 T03550202  RH  041%=      5-min Rain = 0
KWE1 142109Z 06008KT 36/20 A30 RMK A01 T03580201  RH  040%=      5-min Rain = 0
KWE1 142110Z 05007KT 36/20 A30 RMK A01 T03570199  RH  040%=      5-min Rain = 0
KWE1 142111Z 05006KT 35/20 A30 RMK A01 T03540203  RH  041%=      5-min Rain = 0
KWE1 142112Z 06009KT 35/20 A30 RMK A01 T03540200  RH  041%=      5-min Rain = 0
KWE1 142113Z 06013KT 35/20 A30 RMK A01 T03530198  RH  040%=      5-min Rain = 0
KWE1 142114Z 07014G19KT 35/20 A30 RMK A01 T03510196  RH  040%=      5-min Rain = 0
KWE1 142115Z 08013G18KT 35/19 A2999 RMK A01 T03500194  RH  040%=      5-min Rain = 0
KWE1 142116Z 07010KT 35/20 A2999 RMK A01 T03500195  RH  040%=      5-min Rain = 0
KWE1 142117Z 07007KT 35/19 A2999 RMK A01 T03510194  RH  040%=      5-min Rain = 0
KWE1 142118Z 06008KT 35/20 A2999 RMK A01 T03520196  RH  040%=      5-min Rain = 0
KWE1 142119Z 06007KT 35/19 A2999 RMK A01 T03520193  RH  039%=      5-min Rain = 0
KWE1 142120Z 07009KT 35/19 A2999 RMK A01 T03520193  RH  039%=      5-min Rain = 0
KWE1 142121Z 06009KT 35/19 A2999 RMK A01 T03530193  RH  039%=      5-min Rain = 0
KWE1 142122Z 10010KT 35/19 A2999 RMK A01 T03530194  RH  039%=      5-min Rain = 0
KWE1 142123Z 11011KT 36/19 A2999 RMK A01 T03560193  RH  039%=      5-min Rain = 0
KWE1 142124Z 09007KT 36/19 A2998 RMK A01 T03560192  RH  038%=      5-min Rain = 0
KWE1 142125Z 07005KT 36/19 A2998 RMK A01 T03570193  RH  038%=      5-min Rain = 0
KWE1 142126Z 09009KT 36/19 A2999 RMK A01 T03560193  RH  038%=      5-min Rain = 0
KWE1 142127Z 09011G16KT 36/19 A2998 RMK A01 T03560191  RH  038%=      5-min Rain = 0
KWE1 142128Z 08012KT 36/19 A2999 RMK A01 T03560189  RH  037%=      5-min Rain = 0
KWE1 142129Z 08010KT 36/19 A2999 RMK A01 T03560189  RH  037%=      5-min Rain = 0
KWE1 142130Z 08008KT 36/19 A2998 RMK A01 T03560189  RH  038%=      5-min Rain = 0
KWE1 142131Z 06008KT 36/19 A2998 RMK A01 T03560191  RH  038%=      5-min Rain = 0
KWE1 142132Z 06008KT 36/19 A2998 RMK A01 T03550190  RH  038%=      5-min Rain = 0
KWE1 142133Z 10006G11KT 35/19 A2998 RMK A01 T03530191  RH  039%=      5-min Rain = 0
KWE1 142134Z 11009KT 36/19 A2998 RMK A01 T03560190  RH  038%=      5-min Rain = 0
KWE1 142135Z 10011KT 36/19 A2998 RMK A01 T03580190  RH  037%=      5-min Rain = 0
KWE1 142136Z 10010KT 36/19 A2998 RMK A01 T03570189  RH  037%=      5-min Rain = 0
KWE1 142137Z 11009KT 36/19 A2998 RMK A01 T03570191  RH  038%=      5-min Rain = 0
KWE1 142138Z 09009KT 36/19 A2998 RMK A01 T03580192  RH  038%=      5-min Rain = 0
KWE1 142139Z 10009G15KT 36/20 A2998 RMK A01 T03590195  RH  038%=      5-min Rain = 0
KWE1 142140Z 09011KT 36/19 A2998 RMK A01 T03630193  RH  037%=      5-min Rain = 0
KWE1 142141Z 09010KT 37/19 A2998 RMK A01 T03650189  RH  036%=      5-min Rain = 0
KWE1 142142Z 09012KT 37/19 A2998 RMK A01 T03650188  RH  036%=      5-min Rain = 0
KWE1 142143Z 09010KT 36/19 A2998 RMK A01 T03640188  RH  036%=      5-min Rain = 0
KWE1 142144Z 08009KT 36/19 A2998 RMK A01 T03630186  RH  036%=      5-min Rain = 0
KWE1 142145Z 08006KT 36/19 A2998 RMK A01 T03610188  RH  036%=      5-min Rain = 0
KWE1 142146Z 08008KT 36/19 A2998 RMK A01 T03600188  RH  036%=      5-min Rain = 0
KWE1 142147Z 11011KT 36/19 A2998 RMK A01 T03580189  RH  037%=      5-min Rain = 0
KWE1 142148Z 09010KT 36/19 A2998 RMK A01 T03570191  RH  038%=      5-min Rain = 0
KWE1 142149Z 09008KT 36/19 A2998 RMK A01 T03580191  RH  037%=      5-min Rain = 0
KWE1 142150Z 08013KT 36/19 A2998 RMK A01 T03580190  RH  037%=      5-min Rain = 0
KWE1 142151Z 07011KT 36/19 A2998 RMK A01 T03580191  RH  038%=      5-min Rain = 0
KWE1 142152Z 08010KT 36/19 A2998 RMK A01 T03570192  RH  038%=      5-min Rain = 0
KWE1 142153Z 08008KT 36/19 A2998 RMK A01 T03570190  RH  037%=      5-min Rain = 0
KWE1 142154Z 07007KT 36/19 A2998 RMK A01 T03570192  RH  038%=      5-min Rain = 0
KWE1 142155Z 06009KT 36/19 A2998 RMK A01 T03570194  RH  038%=      5-min Rain = 0
KWE1 142156Z 07009KT 36/19 A2998 RMK A01 T03580193  RH  038%=      5-min Rain = 0
KWE1 142157Z 08008KT 36/20 A2998 RMK A01 T03590195  RH  038%=      5-min Rain = 0
KWE1 142158Z 09006KT 36/20 A2998 RMK A01 T03600196  RH  038%=      5-min Rain = 0
KWE1 142159Z 08009G15KT 36/20 A2998 RMK A01 T03590198  RH  039%=      5-min Rain = 0
KWE1 142200Z 06011KT 36/20 A2998 RMK A01 T03580197  RH  039%=      5-min Rain = 0
KWE1 142201Z 06009KT 36/20 A2998 RMK A01 T03560197  RH  039%=      5-min Rain = 0
KWE1 142202Z 07007KT 35/20 A2998 RMK A01 T03540195  RH  040%=      5-min Rain = 0
KWE1 142203Z 09008KT 35/20 A2998 RMK A01 T03530196  RH  040%=      5-min Rain = 0
KWE1 142204Z 09008KT 35/19 A2998 RMK A01 T03530194  RH  039%=      5-min Rain = 0
KWE1 142205Z 10010KT 35/20 A2998 RMK A01 T03530195  RH  040%=      5-min Rain = 0
KWE1 142206Z 10013KT 36/19 A2998 RMK A01 T03550194  RH  039%=      5-min Rain = 0
KWE1 142207Z 09012KT 36/19 A2998 RMK A01 T03550193  RH  039%=      5-min Rain = 0
KWE1 142208Z 10012KT 35/19 A2998 RMK A01 T03540193  RH  039%=      5-min Rain = 0
KWE1 142209Z 09010KT 35/19 A2998 RMK A01 T03530192  RH  039%=      5-min Rain = 0
KWE1 142210Z 10011KT 35/19 A2998 RMK A01 T03530192  RH  039%=      5-min Rain = 0
KWE1 142211Z 10010KT 36/19 A2998 RMK A01 T03550194  RH  039%=      5-min Rain = 0
KWE1 142212Z 10009KT 36/19 A2998 RMK A01 T03580194  RH  038%=      5-min Rain = 0
KWE1 142213Z 10008G13KT 36/19 A2998 RMK A01 T03580194  RH  038%=      5-min Rain = 0
KWE1 142214Z 10006G12KT 36/19 A2998 RMK A01 T03570194  RH  038%=      5-min Rain = 0
KWE1 142215Z 10011KT 36/20 A2998 RMK A01 T03570195  RH  039%=      5-min Rain = 0
KWE1 142216Z 07011KT 36/20 A2998 RMK A01 T03570195  RH  039%=      5-min Rain = 0
KWE1 142217Z 06006KT 36/20 A2998 RMK A01 T03550196  RH  039%=      5-min Rain = 0
KWE1 142218Z 10006KT 35/20 A2998 RMK A01 T03520195  RH  040%=      5-min Rain = 0
KWE1 142219Z 05007KT 35/20 A2998 RMK A01 T03490195  RH  040%=      5-min Rain = 0
KWE1 142220Z 08012KT 35/19 A2998 RMK A01 T03450194  RH  041%=      5-min Rain = 0
KWE1 142221Z 07010KT 34/19 A2998 RMK A01 T03440194  RH  041%=      5-min Rain = 0
KWE1 142222Z 06011KT 34/20 A2998 RMK A01 T03430195  RH  042%=      5-min Rain = 0
KWE1 142223Z 08009KT 34/20 A2998 RMK A01 T03430195  RH  042%=      5-min Rain = 0
KWE1 142224Z 10010KT 35/20 A2998 RMK A01 T03450196  RH  042%=      5-min Rain = 0
KWE1 142225Z 11010KT 35/20 A2998 RMK A01 T03490196  RH  041%=      5-min Rain = 0
KWE1 142226Z 11008KT 35/20 A2998 RMK A01 T03530197  RH  040%=      5-min Rain = 0
KWE1 142227Z 11010KT 35/20 A2998 RMK A01 T03530196  RH  040%=      5-min Rain = 0
KWE1 142228Z 11009KT 35/20 A2998 RMK A01 T03540196  RH  040%=      5-min Rain = 0
KWE1 142229Z 11011KT 35/20 A2998 RMK A01 T03540195  RH  039%=      5-min Rain = 0
KWE1 142230Z 10008KT 35/19 A2998 RMK A01 T03540193  RH  039%=      5-min Rain = 0
KWE1 142231Z 11009KT 35/19 A2998 RMK A01 T03530194  RH  039%=      5-min Rain = 0
KWE1 142232Z 09008KT 35/19 A2998 RMK A01 T03540194  RH  039%=      5-min Rain = 0
KWE1 142233Z 10011KT 36/20 A2998 RMK A01 T03580195  RH  038%=      5-min Rain = 0
KWE1 142234Z 11009KT 36/19 A2998 RMK A01 T03590194  RH  038%=      5-min Rain = 0
KWE1 142235Z 11011KT 36/19 A2998 RMK A01 T03560193  RH  039%=      5-min Rain = 0
KWE1 142236Z 10010KT 35/19 A2998 RMK A01 T03540194  RH  039%=      5-min Rain = 0
KWE1 142237Z 09011KT 35/19 A2998 RMK A01 T03530194  RH  039%=      5-min Rain = 0
KWE1 142238Z 11013KT 35/19 A2998 RMK A01 T03520193  RH  039%=      5-min Rain = 0
KWE1 142239Z 09010KT 35/19 A2998 RMK A01 T03500191  RH  039%=      5-min Rain = 0
KWE1 142240Z 09011KT 35/19 A2998 RMK A01 T03480191  RH  040%=      5-min Rain = 0
KWE1 142241Z 08010G15KT 35/19 A2998 RMK A01 T03450190  RH  040%=      5-min Rain = 0
KWE1 142242Z 11011KT 34/19 A2998 RMK A01 T03440190  RH  041%=      5-min Rain = 0
KWE1 142243Z 11013KT 34/19 A2998 RMK A01 T03430192  RH  041%=      5-min Rain = 0
KWE1 142244Z 10013KT 34/19 A2998 RMK A01 T03440192  RH  041%=      5-min Rain = 0
KWE1 142245Z 09011KT 35/19 A2998 RMK A01 T03470193  RH  040%=      5-min Rain = 0
KWE1 142246Z 09009KT 35/19 A2998 RMK A01 T03500191  RH  039%=      5-min Rain = 0
KWE1 142247Z 08007KT 35/19 A2998 RMK A01 T03500193  RH  040%=      5-min Rain = 0
KWE1 142248Z 10010KT 35/19 A2998 RMK A01 T03520194  RH  040%=      5-min Rain = 0
KWE1 142249Z 10009KT 35/19 A2998 RMK A01 T03540192  RH  039%=      5-min Rain = 0
KWE1 142250Z 08010KT 35/19 A2998 RMK A01 T03530192  RH  039%=      5-min Rain = 0
KWE1 142251Z 06009KT 35/20 A2999 RMK A01 T03530195  RH  039%=      5-min Rain = 0
KWE1 142252Z 06006KT 35/19 A2998 RMK A01 T03530194  RH  039%=      5-min Rain = 0
KWE1 142253Z 08009KT 35/19 A2998 RMK A01 T03500191  RH  039%=      5-min Rain = 0
KWE1 142254Z 08009KT 35/19 A2998 RMK A01 T03490191  RH  040%=      5-min Rain = 0
KWE1 142255Z 09009KT 35/19 A2998 RMK A01 T03480190  RH  039%=      5-min Rain = 0
KWE1 142256Z 09008KT 34/19 A2998 RMK A01 T03440188  RH  040%=      5-min Rain = 0
KWE1 142257Z 08007KT 34/19 A2998 RMK A01 T03410188  RH  040%=      5-min Rain = 0
KWE1 142258Z 10006KT 34/19 A2998 RMK A01 T03400188  RH  041%=      5-min Rain = 0
KWE1 142259Z 09004KT 34/19 A2998 RMK A01 T03380186  RH  041%=      5-min Rain = 0
KWE1 142300Z 07003KT 34/19 A2998 RMK A01 T03370186  RH  041%=      5-min Rain = 0
KWE1 142301Z 09006G16KT 34/19 A2998 RMK A01 T03370190  RH  042%=      5-min Rain = 0
KWE1 142302Z 08011KT 34/19 A2999 RMK A01 T03370189  RH  042%=      5-min Rain = 0
KWE1 142303Z 09009KT 34/19 A2999 RMK A01 T03390189  RH  041%=      5-min Rain = 0
KWE1 142304Z 09011KT 34/19 A2999 RMK A01 T03440188  RH  040%=      5-min Rain = 0
KWE1 142305Z 10008KT 35/19 A2998 RMK A01 T03450187  RH  039%=      5-min Rain = 0
KWE1 142306Z 08010KT 35/19 A2999 RMK A01 T03480189  RH  039%=      5-min Rain = 0
KWE1 142307Z 08009KT 35/19 A2999 RMK A01 T03490189  RH  039%=      5-min Rain = 0
KWE1 142308Z 06011KT 35/19 A2999 RMK A01 T03470190  RH  040%=      5-min Rain = 0
KWE1 142309Z 05011KT 35/19 A2999 RMK A01 T03470190  RH  040%=      5-min Rain = 0
KWE1 142310Z 05007KT 35/19 A2999 RMK A01 T03450188  RH  040%=      5-min Rain = 0
KWE1 142311Z 05005KT 34/19 A2999 RMK A01 T03430190  RH  040%=      5-min Rain = 0
KWE1 142312Z 08006KT 34/19 A2999 RMK A01 T03430190  RH  041%=      5-min Rain = 0
KWE1 142313Z 06007KT 35/19 A2999 RMK A01 T03450192  RH  041%=      5-min Rain = 0
KWE1 142314Z 08010KT 35/19 A2999 RMK A01 T03470192  RH  040%=      5-min Rain = 0
KWE1 142315Z 09007KT 35/19 A2998 RMK A01 T03480190  RH  040%=      5-min Rain = 0
KWE1 142316Z 08010KT 35/19 A2998 RMK A01 T03480190  RH  039%=      5-min Rain = 0
KWE1 142317Z 08010KT 35/19 A2998 RMK A01 T03480190  RH  040%=      5-min Rain = 0
KWE1 142318Z 08010KT 35/19 A2998 RMK A01 T03470190  RH  040%=      5-min Rain = 0
KWE1 142319Z 08012KT 35/19 A2998 RMK A01 T03470189  RH  039%=      5-min Rain = 0
KWE1 142320Z 08011KT 35/19 A2998 RMK A01 T03470191  RH  040%=      5-min Rain = 0
KWE1 142321Z 09009KT 35/19 A2998 RMK A01 T03470189  RH  039%=      5-min Rain = 0
KWE1 142322Z 08009KT 35/19 A2998 RMK A01 T03470189  RH  040%=      5-min Rain = 0
KWE1 142323Z 08009KT 35/19 A2998 RMK A01 T03470188  RH  039%=      5-min Rain = 0
KWE1 142324Z 06005KT 35/19 A2998 RMK A01 T03470190  RH  040%=      5-min Rain = 0
KWE1 142325Z 07004KT 35/19 A2998 RMK A01 T03470191  RH  040%=      5-min Rain = 0
KWE1 142326Z 06007KT 35/19 A2998 RMK A01 T03470190  RH  040%=      5-min Rain = 0
KWE1 142327Z 07008KT 35/19 A2998 RMK A01 T03470192  RH  040%=      5-min Rain = 0
KWE1 142328Z 09008KT 35/19 A2998 RMK A01 T03470192  RH  040%=      5-min Rain = 0
KWE1 142329Z 09008KT 35/19 A2998 RMK A01 T03480191  RH  040%=      5-min Rain = 0
KWE1 142330Z 10009KT 35/19 A2998 RMK A01 T03480191  RH  040%=      5-min Rain = 0
KWE1 142331Z 10010KT 35/19 A2998 RMK A01 T03490190  RH  039%=      5-min Rain = 0
KWE1 142332Z 11009KT 35/19 A2998 RMK A01 T03490189  RH  039%=      5-min Rain = 0
KWE1 142333Z 11008KT 35/19 A2998 RMK A01 T03470189  RH  039%=      5-min Rain = 0
KWE1 142334Z 12009KT 35/19 A2998 RMK A01 T03470190  RH  040%=      5-min Rain = 0
KWE1 142335Z 11008G13KT 35/19 A2998 RMK A01 T03460188  RH  040%=      5-min Rain = 0
KWE1 142336Z 09011G18KT 35/19 A2998 RMK A01 T03470189  RH  039%=      5-min Rain = 0
KWE1 142337Z 06010KT 35/19 A2998 RMK A01 T03480191  RH  040%=      5-min Rain = 0
KWE1 142338Z 08010KT 35/19 A2998 RMK A01 T03480189  RH  039%=      5-min Rain = 0
KWE1 142339Z 08008KT 35/19 A2998 RMK A01 T03460188  RH  039%=      5-min Rain = 0
KWE1 142340Z 06007KT 35/19 A2998 RMK A01 T03460190  RH  040%=      5-min Rain = 0
KWE1 142341Z 06009KT 35/19 A2998 RMK A01 T03460189  RH  040%=      5-min Rain = 0
KWE1 142342Z 06008KT 35/19 A2998 RMK A01 T03450189  RH  040%=      5-min Rain = 0
KWE1 142343Z 06007KT 34/19 A2998 RMK A01 T03440189  RH  040%=      5-min Rain = 0
KWE1 142344Z 07006KT 34/19 A2998 RMK A01 T03430188  RH  040%=      5-min Rain = 0
KWE1 142345Z 08006KT 34/19 A2998 RMK A01 T03430188  RH  040%=      5-min Rain = 0
KWE1 142346Z 07006KT 34/19 A2998 RMK A01 T03430187  RH  040%=      5-min Rain = 0
KWE1 142347Z 10008KT 34/19 A2998 RMK A01 T03430188  RH  040%=      5-min Rain = 0
KWE1 142348Z 10007KT 34/19 A2998 RMK A01 T03440188  RH  040%=      5-min Rain = 0
KWE1 142349Z 09009KT 35/19 A2998 RMK A01 T03450191  RH  040%=      5-min Rain = 0
KWE1 142350Z 09011KT 35/19 A2998 RMK A01 T03460193  RH  041%=      5-min Rain = 0
KWE1 142351Z 08010KT 35/19 A2998 RMK A01 T03460193  RH  041%=      5-min Rain = 0
KWE1 142352Z 09008KT 35/19 A2998 RMK A01 T03450193  RH  041%=      5-min Rain = 0
KWE1 142353Z 09010KT 34/19 A2998 RMK A01 T03440193  RH  041%=      5-min Rain = 0
KWE1 142354Z 09010KT 34/19 A2998 RMK A01 T03440192  RH  041%=      5-min Rain = 0
KWE1 142355Z 10009KT 34/19 A2998 RMK A01 T03430191  RH  041%=      5-min Rain = 0
KWE1 142356Z 10009KT 34/19 A2998 RMK A01 T03430191  RH  041%=      5-min Rain = 0
KWE1 142357Z 11007KT 34/19 A2998 RMK A01 T03430191  RH  041%=      5-min Rain = 0
KWE1 142358Z 10006KT 34/19 A2998 RMK A01 T03420191  RH  041%=      5-min Rain = 0
KWE1 142359Z 09005KT 34/19 A2998 RMK A01 T03420192  RH  041%=      5-min Rain = 0
KWE1 150000Z 09007KT 34/19 A2998 RMK A01 T03430193  RH  041%=      5-min Rain = 0
KWE1 150001Z 10009KT 34/19 A2998 RMK A01 T03440191  RH  041%=      5-min Rain = 0
KWE1 150002Z 11008KT 34/19 A2998 RMK A01 T03440191  RH  041%=      5-min Rain = 0
KWE1 150003Z 09011KT 34/19 A2998 RMK A01 T03430191  RH  041%=      5-min Rain = 0
KWE1 150004Z 09010KT 34/19 A2998 RMK A01 T03430190  RH  041%=      5-min Rain = 0
KWE1 150005Z 10009KT 34/19 A2998 RMK A01 T03420190  RH  041%=      5-min Rain = 0
KWE1 150006Z 09008KT 34/19 A2998 RMK A01 T03420190  RH  041%=      5-min Rain = 0
KWE1 150007Z 09009KT 34/19 A2998 RMK A01 T03410189  RH  041%=      5-min Rain = 0
KWE1 150008Z 10010KT 34/19 A2998 RMK A01 T03410189  RH  041%=      5-min Rain = 0
KWE1 150009Z 09007KT 34/19 A2998 RMK A01 T03400189  RH  041%=      5-min Rain = 0
KWE1 150010Z 10006KT 34/19 A2998 RMK A01 T03400190  RH  041%=      5-min Rain = 0
KWE1 150011Z 09010KT 34/19 A2998 RMK A01 T03410190  RH  041%=      5-min Rain = 0
KWE1 150012Z 09010KT 34/19 A2998 RMK A01 T03410189  RH  041%=      5-min Rain = 0
KWE1 150013Z 08010KT 34/19 A2998 RMK A01 T03400188  RH  041%=      5-min Rain = 0
KWE1 150014Z 09009KT 34/19 A2998 RMK A01 T03390189  RH  041%=      5-min Rain = 0
KWE1 150015Z 10009KT 34/19 A2998 RMK A01 T03390189  RH  041%=      5-min Rain = 0
KWE1 150016Z 09010KT 34/19 A2998 RMK A01 T03390188  RH  041%=      5-min Rain = 0
KWE1 150017Z 09010KT 34/19 A2998 RMK A01 T03390188  RH  041%=      5-min Rain = 0
KWE1 150018Z 10009KT 34/19 A2998 RMK A01 T03380188  RH  041%=      5-min Rain = 0
KWE1 150019Z 10010KT 34/19 A2998 RMK A01 T03380188  RH  041%=      5-min Rain = 0
KWE1 150020Z 10008KT 34/19 A2998 RMK A01 T03380188  RH  041%=      5-min Rain = 0
KWE1 150021Z 09009KT 34/19 A2998 RMK A01 T03380188  RH  041%=      5-min Rain = 0
KWE1 150022Z 10010KT 34/19 A2998 RMK A01 T03380187  RH  041%=      5-min Rain = 0
KWE1 150023Z 09007KT 34/19 A2998 RMK A01 T03380187  RH  041%=      5-min Rain = 0
KWE1 150024Z 09006KT 34/19 A2998 RMK A01 T03380188  RH  041%=      5-min Rain = 0
KWE1 150025Z 07010KT 34/19 A2998 RMK A01 T03380188  RH  041%=      5-min Rain = 0
KWE1 150026Z 07008KT 34/19 A2998 RMK A01 T03370187  RH  041%=      5-min Rain = 0
KWE1 150027Z 07007KT 34/19 A2998 RMK A01 T03360188  RH  042%=      5-min Rain = 0
KWE1 150028Z 07006KT 34/19 A2998 RMK A01 T03360188  RH  042%=      5-min Rain = 0
KWE1 150029Z 10008KT 34/19 A2998 RMK A01 T03360188  RH  042%=      5-min Rain = 0
KWE1 150030Z 09009KT 34/19 A2998 RMK A01 T03360187  RH  041%=      5-min Rain = 0
KWE1 150031Z 10008KT 34/19 A2998 RMK A01 T03350187  RH  042%=      5-min Rain = 0
KWE1 150032Z 10009KT 34/19 A2998 RMK A01 T03360189  RH  042%=      5-min Rain = 0
KWE1 150033Z 09009KT 34/19 A2998 RMK A01 T03360189  RH  042%=      5-min Rain = 0
KWE1 150034Z 10009KT 34/19 A2998 RMK A01 T03350189  RH  042%=      5-min Rain = 0
KWE1 150035Z 10008KT 34/19 A2998 RMK A01 T03350189  RH  042%=      5-min Rain = 0
KWE1 150036Z 10010KT 34/19 A2998 RMK A01 T03350189  RH  042%=      5-min Rain = 0
KWE1 150037Z 10009KT 33/19 A2998 RMK A01 T03340189  RH  042%=      5-min Rain = 0
KWE1 150038Z 09009KT 33/19 A2998 RMK A01 T03340189  RH  042%=      5-min Rain = 0
KWE1 150039Z 08007KT 33/19 A2998 RMK A01 T03340189  RH  042%=      5-min Rain = 0
KWE1 150040Z 09008KT 33/19 A2999 RMK A01 T03340191  RH  043%=      5-min Rain = 0
KWE1 150041Z 10009KT 33/19 A2999 RMK A01 T03340191  RH  043%=      5-min Rain = 0
KWE1 150042Z 09009KT 33/19 A2999 RMK A01 T03330192  RH  043%=      5-min Rain = 0
KWE1 150043Z 09007KT 33/19 A2999 RMK A01 T03330192  RH  044%=      5-min Rain = 0
KWE1 150044Z 09009KT 33/19 A2999 RMK A01 T03320193  RH  044%=      5-min Rain = 0
KWE1 150045Z 07007KT 33/19 A2999 RMK A01 T03320193  RH  044%=      5-min Rain = 0
KWE1 150046Z 08006KT 33/19 A2999 RMK A01 T03320193  RH  044%=      5-min Rain = 0
KWE1 150047Z 09006KT 33/19 A2999 RMK A01 T03310193  RH  044%=      5-min Rain = 0
KWE1 150048Z 08008KT 33/19 A2999 RMK A01 T03310193  RH  044%=      5-min Rain = 0
KWE1 150049Z 08007KT 33/19 A2999 RMK A01 T03310193  RH  044%=      5-min Rain = 0
KWE1 150050Z 08007KT 33/19 A2999 RMK A01 T03300193  RH  044%=      5-min Rain = 0
KWE1 150051Z 08007KT 33/19 A2999 RMK A01 T03300193  RH  045%=      5-min Rain = 0
KWE1 150052Z 08006KT 33/19 A2999 RMK A01 T03300194  RH  045%=      5-min Rain = 0
KWE1 150053Z 08007KT 33/19 A2999 RMK A01 T03290193  RH  045%=      5-min Rain = 0
KWE1 150054Z 08008KT 33/19 A2999 RMK A01 T03290191  RH  044%=      5-min Rain = 0
KWE1 150055Z 07008KT 33/19 A2999 RMK A01 T03290191  RH  044%=      5-min Rain = 0
KWE1 150056Z 09008KT 33/19 A2999 RMK A01 T03290192  RH  044%=      5-min Rain = 0
KWE1 150057Z 08008KT 33/19 A2999 RMK A01 T03280192  RH  045%=      5-min Rain = 0
KWE1 150058Z 08007KT 33/19 A2999 RMK A01 T03290192  RH  045%=      5-min Rain = 0
KWE1 150059Z 08007KT 33/19 A2999 RMK A01 T03280192  RH  045%=      5-min Rain = 0
KWE1 150100Z 08005KT 33/19 A2999 RMK A01 T03270193  RH  045%=      5-min Rain = 0
KWE1 150101Z 09006KT 33/19 A2999 RMK A01 T03270193  RH  045%=      5-min Rain = 0
KWE1 150102Z 10007KT 33/19 A2999 RMK A01 T03260193  RH  045%=      5-min Rain = 0
KWE1 150103Z 09008KT 33/19 A2999 RMK A01 T03260193  RH  045%=      5-min Rain = 0
KWE1 150104Z 09007KT 33/19 A2999 RMK A01 T03260193  RH  046%=      5-min Rain = 0
KWE1 150105Z 07006KT 33/19 A2999 RMK A01 T03250193  RH  046%=      5-min Rain = 0
KWE1 150106Z 08005KT 33/19 A2999 RMK A01 T03250194  RH  046%=      5-min Rain = 0
KWE1 150107Z 07007KT 32/19 A2999 RMK A01 T03240193  RH  046%=      5-min Rain = 0
KWE1 150108Z 08007KT 32/19 A2999 RMK A01 T03240193  RH  046%=      5-min Rain = 0
KWE1 150109Z 08007KT 32/19 A2999 RMK A01 T03230193  RH  046%=      5-min Rain = 0
KWE1 150110Z 08007KT 32/19 A30 RMK A01 T03230193  RH  046%=      5-min Rain = 0
KWE1 150111Z 09007KT 32/19 A30 RMK A01 T03220193  RH  046%=      5-min Rain = 0
KWE1 150112Z 09007KT 32/19 A30 RMK A01 T03220193  RH  046%=      5-min Rain = 0
KWE1 150113Z 08006KT 32/19 A30 RMK A01 T03220192  RH  046%=      5-min Rain = 0
KWE1 150114Z 07007KT 32/19 A30 RMK A01 T03220191  RH  046%=      5-min Rain = 0
KWE1 150115Z 07005KT 32/19 A30 RMK A01 T03220191  RH  046%=      5-min Rain = 0
KWE1 150116Z 08006KT 32/19 A30 RMK A01 T03220192  RH  046%=      5-min Rain = 0
KWE1 150117Z 08008KT 32/19 A30 RMK A01 T03210192  RH  046%=      5-min Rain = 0
KWE1 150118Z 07007KT 32/19 A30 RMK A01 T03210192  RH  046%=      5-min Rain = 0
KWE1 150119Z 07005KT 32/19 A30 RMK A01 T03210192  RH  046%=      5-min Rain = 0
KWE1 150120Z 07006KT 32/19 A30 RMK A01 T03210192  RH  047%=      5-min Rain = 0
KWE1 150121Z 08005KT 32/19 A30 RMK A01 T03200192  RH  047%=      5-min Rain = 0
KWE1 150122Z 07005KT 32/19 A30 RMK A01 T03200191  RH  047%=      5-min Rain = 0
KWE1 150123Z 07004KT 32/19 A30 RMK A01 T03190191  RH  047%=      5-min Rain = 0
KWE1 150124Z 06004KT 32/19 A30 RMK A01 T03170192  RH  047%=      5-min Rain = 0
KWE1 150125Z 06005KT 32/19 A30 RMK A01 T03160191  RH  048%=      5-min Rain = 0
KWE1 150126Z 06004KT 32/19 A30 RMK A01 T03160192  RH  048%=      5-min Rain = 0
KWE1 150127Z 07004KT 32/19 A30 RMK A01 T03160192  RH  048%=      5-min Rain = 0
KWE1 150128Z 06004KT 32/19 A30 RMK A01 T03150192  RH  048%=      5-min Rain = 0
KWE1 150129Z 06004KT 31/19 A30 RMK A01 T03130192  RH  049%=      5-min Rain = 0
KWE1 150130Z 06005KT 31/19 A30 RMK A01 T03130192  RH  049%=      5-min Rain = 0
KWE1 150131Z 08004KT 31/19 A30 RMK A01 T03120192  RH  049%=      5-min Rain = 0
KWE1 150132Z 08004KT 31/19 A3001 RMK A01 T03110191  RH  049%=      5-min Rain = 0
KWE1 150133Z 09005KT 31/19 A3001 RMK A01 T03100191  RH  049%=      5-min Rain = 0
KWE1 150134Z 09005KT 31/19 A3001 RMK A01 T03100191  RH  049%=      5-min Rain = 0
KWE1 150135Z 10006KT 31/19 A3001 RMK A01 T03090191  RH  049%=      5-min Rain = 0
KWE1 150136Z 09007KT 31/19 A3001 RMK A01 T03090191  RH  050%=      5-min Rain = 0
KWE1 150137Z 09007KT 31/19 A3001 RMK A01 T03100192  RH  049%=      5-min Rain = 0
KWE1 150138Z 09007KT 31/19 A3001 RMK A01 T03110193  RH  049%=      5-min Rain = 0
KWE1 150139Z 09007KT 31/19 A3001 RMK A01 T03110193  RH  049%=      5-min Rain = 0
KWE1 150140Z 09007KT 31/19 A3001 RMK A01 T03120193  RH  049%=      5-min Rain = 0
KWE1 150141Z 10006KT 31/19 A3001 RMK A01 T03120194  RH  049%=      5-min Rain = 0
KWE1 150142Z 10007KT 31/19 A3001 RMK A01 T03120194  RH  049%=      5-min Rain = 0
KWE1 150143Z 10007KT 31/19 A3001 RMK A01 T03120194  RH  049%=      5-min Rain = 0
KWE1 150144Z 10006KT 31/19 A3001 RMK A01 T03130194  RH  049%=      5-min Rain = 0
KWE1 150145Z 10006KT 31/19 A3001 RMK A01 T03130194  RH  049%=      5-min Rain = 0
KWE1 150146Z 10006KT 31/19 A3001 RMK A01 T03120193  RH  049%=      5-min Rain = 0
KWE1 150147Z 10005KT 31/19 A3001 RMK A01 T03120193  RH  049%=      5-min Rain = 0
KWE1 150148Z 10005KT 31/19 A3001 RMK A01 T03120193  RH  049%=      5-min Rain = 0
KWE1 150149Z 11006KT 31/19 A3001 RMK A01 T03110192  RH  049%=      5-min Rain = 0
KWE1 150150Z 10005KT 31/19 A3001 RMK A01 T03110192  RH  049%=      5-min Rain = 0
KWE1 150151Z 10005KT 31/19 A3002 RMK A01 T03100192  RH  049%=      5-min Rain = 0
KWE1 150152Z 10005KT 31/19 A3002 RMK A01 T03100192  RH  049%=      5-min Rain = 0
KWE1 150153Z 10004KT 31/19 A3002 RMK A01 T03090192  RH  050%=      5-min Rain = 0
KWE1 150154Z 09004KT 31/19 A3002 RMK A01 T03080192  RH  050%=      5-min Rain = 0
KWE1 150155Z 09006KT 31/19 A3002 RMK A01 T03070192  RH  050%=      5-min Rain = 0
KWE1 150156Z 09006KT 31/19 A3002 RMK A01 T03060193  RH  051%=      5-min Rain = 0
KWE1 150157Z 09006KT 31/19 A3002 RMK A01 T03050193  RH  051%=      5-min Rain = 0
KWE1 150158Z 09006KT 31/19 A3002 RMK A01 T03050193  RH  051%=      5-min Rain = 0
KWE1 150159Z 09006KT 31/19 A3002 RMK A01 T03050193  RH  051%=      5-min Rain = 0
KWE1 150200Z 10006KT 30/19 A3002 RMK A01 T03040193  RH  052%=      5-min Rain = 0
KWE1 150201Z 10006KT 30/19 A3002 RMK A01 T03040194  RH  052%=      5-min Rain = 0
KWE1 150202Z 09005KT 30/19 A3002 RMK A01 T03040194  RH  052%=      5-min Rain = 0
KWE1 150203Z 10006KT 30/19 A3002 RMK A01 T03030194  RH  052%=      5-min Rain = 0
KWE1 150204Z 09006KT 30/19 A3002 RMK A01 T03030194  RH  052%=      5-min Rain = 0
KWE1 150205Z 09006KT 30/19 A3002 RMK A01 T03030194  RH  052%=      5-min Rain = 0
KWE1 150206Z 09005KT 30/19 A3002 RMK A01 T03020194  RH  052%=      5-min Rain = 0
KWE1 150207Z 09006KT 30/19 A3002 RMK A01 T03020194  RH  052%=      5-min Rain = 0
KWE1 150208Z 09005KT 30/19 A3002 RMK A01 T03020194  RH  052%=      5-min Rain = 0
KWE1 150209Z 09006KT 30/19 A3002 RMK A01 T03020194  RH  052%=      5-min Rain = 0
KWE1 150210Z 09005KT 30/19 A3002 RMK A01 T03010194  RH  053%=      5-min Rain = 0
KWE1 150211Z 09005KT 30/19 A3003 RMK A01 T03010194  RH  053%=      5-min Rain = 0
KWE1 150212Z 09005KT 30/19 A3003 RMK A01 T03010194  RH  053%=      5-min Rain = 0
KWE1 150213Z 10005KT 30/19 A3003 RMK A01 T03000194  RH  053%=      5-min Rain = 0
KWE1 150214Z 10004KT 30/19 A3003 RMK A01 T03000193  RH  053%=      5-min Rain = 0
KWE1 150215Z 10005KT 30/19 A3003 RMK A01 T02990193  RH  053%=      5-min Rain = 0
KWE1 150216Z 09005KT 30/19 A3003 RMK A01 T02980193  RH  053%=      5-min Rain = 0
KWE1 150217Z 09005KT 30/19 A3003 RMK A01 T02990194  RH  053%=      5-min Rain = 0
KWE1 150218Z 09004KT 30/19 A3003 RMK A01 T02980193  RH  053%=      5-min Rain = 0
KWE1 150219Z 10005KT 30/19 A3003 RMK A01 T02980193  RH  053%=      5-min Rain = 0
KWE1 150220Z 10004KT 30/19 A3003 RMK A01 T02970193  RH  054%=      5-min Rain = 0
KWE1 150221Z 10005KT 30/19 A3003 RMK A01 T02970193  RH  054%=      5-min Rain = 0
KWE1 150222Z 10004KT 30/19 A3004 RMK A01 T02970193  RH  054%=      5-min Rain = 0
KWE1 150223Z 10005KT 30/19 A3004 RMK A01 T02970193  RH  054%=      5-min Rain = 0
KWE1 150224Z 10005KT 30/19 A3004 RMK A01 T02960193  RH  054%=      5-min Rain = 0
KWE1 150225Z 09004KT 30/19 A3004 RMK A01 T02960193  RH  054%=      5-min Rain = 0
KWE1 150226Z 09005KT 30/19 A3004 RMK A01 T02960192  RH  054%=      5-min Rain = 0
KWE1 150227Z 09005KT 30/19 A3004 RMK A01 T02950192  RH  054%=      5-min Rain = 0
KWE1 150228Z 09005KT 29/19 A3004 RMK A01 T02940192  RH  054%=      5-min Rain = 0
KWE1 150229Z 10005KT 29/19 A3004 RMK A01 T02940192  RH  054%=      5-min Rain = 0
KWE1 150230Z 09005KT 29/19 A3004 RMK A01 T02940192  RH  054%=      5-min Rain = 0
KWE1 150231Z 10005KT 29/19 A3004 RMK A01 T02930192  RH  054%=      5-min Rain = 0
KWE1 150232Z 09005KT 29/19 A3004 RMK A01 T02930192  RH  054%=      5-min Rain = 0
KWE1 150233Z 09005KT 29/19 A3004 RMK A01 T02930191  RH  054%=      5-min Rain = 0
KWE1 150234Z 09005KT 29/19 A3004 RMK A01 T02930191  RH  054%=      5-min Rain = 0
KWE1 150235Z 10005KT 29/19 A3004 RMK A01 T02930191  RH  054%=      5-min Rain = 0
KWE1 150236Z 09005KT 29/19 A3004 RMK A01 T02930192  RH  055%=      5-min Rain = 0
KWE1 150237Z 09004KT 29/19 A3005 RMK A01 T02920191  RH  054%=      5-min Rain = 0
KWE1 150238Z 10005KT 29/19 A3005 RMK A01 T02930191  RH  054%=      5-min Rain = 0
KWE1 150239Z 10004KT 29/19 A3005 RMK A01 T02930192  RH  054%=      5-min Rain = 0
KWE1 150240Z 10004KT 29/19 A3005 RMK A01 T02930192  RH  054%=      5-min Rain = 0
KWE1 150241Z 11005KT 29/19 A3005 RMK A01 T02930191  RH  054%=      5-min Rain = 0
KWE1 150242Z 11005KT 29/19 A3005 RMK A01 T02930191  RH  054%=      5-min Rain = 0
KWE1 150243Z 11005KT 29/19 A3005 RMK A01 T02930190  RH  054%=      5-min Rain = 0
KWE1 150244Z 11005KT 29/19 A3005 RMK A01 T02930189  RH  053%=      5-min Rain = 0
KWE1 150245Z 11004KT 29/19 A3005 RMK A01 T02940189  RH  053%=      5-min Rain = 0
KWE1 150246Z 11005KT 29/19 A3005 RMK A01 T02930188  RH  053%=      5-min Rain = 0
KWE1 150247Z 11005KT 29/19 A3005 RMK A01 T02930188  RH  053%=      5-min Rain = 0
KWE1 150248Z 11005KT 29/19 A3005 RMK A01 T02930188  RH  053%=      5-min Rain = 0
KWE1 150249Z 10005KT 29/19 A3005 RMK A01 T02940188  RH  053%=      5-min Rain = 0
KWE1 150250Z 10006KT 29/19 A3005 RMK A01 T02930188  RH  053%=      5-min Rain = 0
KWE1 150251Z 10006KT 29/19 A3005 RMK A01 T02930188  RH  053%=      5-min Rain = 0
KWE1 150252Z 10006KT 29/19 A3005 RMK A01 T02930188  RH  053%=      5-min Rain = 0
KWE1 150253Z 10005KT 29/19 A3005 RMK A01 T02920188  RH  053%=      5-min Rain = 0
KWE1 150254Z 10005KT 29/19 A3005 RMK A01 T02930188  RH  053%=      5-min Rain = 0
KWE1 150255Z 10005KT 29/19 A3005 RMK A01 T02920188  RH  053%=      5-min Rain = 0
KWE1 150256Z 09005KT 29/19 A3005 RMK A01 T02920188  RH  053%=      5-min Rain = 0
KWE1 150257Z 09006KT 29/19 A3005 RMK A01 T02920189  RH  054%=      5-min Rain = 0
KWE1 150258Z 09006KT 29/19 A3005 RMK A01 T02910189  RH  054%=      5-min Rain = 0
KWE1 150259Z 09006KT 29/19 A3005 RMK A01 T02900189  RH  054%=      5-min Rain = 0
KWE1 150300Z 10006KT 29/19 A3006 RMK A01 T02890189  RH  055%=      5-min Rain = 0
KWE1 150301Z 09006KT 29/19 A3006 RMK A01 T02890189  RH  055%=      5-min Rain = 0
KWE1 150302Z 09006KT 29/19 A3006 RMK A01 T02890189  RH  055%=      5-min Rain = 0
KWE1 150303Z 10006KT 29/19 A3006 RMK A01 T02890189  RH  055%=      5-min Rain = 0
KWE1 150304Z 10006KT 29/19 A3006 RMK A01 T02890189  RH  055%=      5-min Rain = 0
KWE1 150305Z 10007KT 29/19 A3006 RMK A01 T02890189  RH  055%=      5-min Rain = 0
KWE1 150306Z 10006KT 29/19 A3006 RMK A01 T02900189  RH  055%=      5-min Rain = 0
KWE1 150307Z 10006KT 29/19 A3006 RMK A01 T02900189  RH  054%=      5-min Rain = 0
KWE1 150308Z 09007KT 29/19 A3006 RMK A01 T02910189  RH  054%=      5-min Rain = 0
KWE1 150309Z 10006KT 29/19 A3006 RMK A01 T02910189  RH  054%=      5-min Rain = 0
KWE1 150310Z 09006KT 29/19 A3006 RMK A01 T02920189  RH  054%=      5-min Rain = 0
KWE1 150311Z 10006KT 29/19 A3006 RMK A01 T02920189  RH  054%=      5-min Rain = 0
KWE1 150312Z 09006KT 29/19 A3006 RMK A01 T02910189  RH  054%=      5-min Rain = 0
KWE1 150313Z 09006KT 29/19 A3006 RMK A01 T02910189  RH  054%=      5-min Rain = 0
KWE1 150314Z 10007KT 29/19 A3006 RMK A01 T02910189  RH  054%=      5-min Rain = 0
KWE1 150315Z 09007KT 29/19 A3006 RMK A01 T02910189  RH  054%=      5-min Rain = 0
KWE1 150316Z 09007KT 29/19 A3006 RMK A01 T02910189  RH  054%=      5-min Rain = 0
KWE1 150317Z 09007KT 29/19 A3006 RMK A01 T02920188  RH  054%=      5-min Rain = 0
KWE1 150318Z 09007KT 29/19 A3006 RMK A01 T02910188  RH  054%=      5-min Rain = 0
KWE1 150319Z 09007KT 29/19 A3006 RMK A01 T02920188  RH  054%=      5-min Rain = 0
KWE1 150320Z 09007KT 29/19 A3006 RMK A01 T02910189  RH  054%=      5-min Rain = 0
KWE1 150321Z 09007KT 29/19 A3006 RMK A01 T02910189  RH  054%=      5-min Rain = 0
KWE1 150322Z 09007KT 29/19 A3006 RMK A01 T02900188  RH  054%=      5-min Rain = 0
KWE1 150323Z 09006KT 29/19 A3006 RMK A01 T02900188  RH  054%=      5-min Rain = 0
KWE1 150324Z 09006KT 29/19 A3006 RMK A01 T02900188  RH  054%=      5-min Rain = 0
KWE1 150325Z 09006KT 29/19 A3006 RMK A01 T02890188  RH  054%=      5-min Rain = 0
KWE1 150326Z 09006KT 29/19 A3006 RMK A01 T02890188  RH  055%=      5-min Rain = 0
KWE1 150327Z 09006KT 29/19 A3006 RMK A01 T02880188  RH  055%=      5-min Rain = 0
KWE1 150328Z 10006KT 29/19 A3006 RMK A01 T02880188  RH  055%=      5-min Rain = 0
KWE1 150329Z 09006KT 29/19 A3007 RMK A01 T02880188  RH  055%=      5-min Rain = 0
KWE1 150330Z 10007KT 29/19 A3007 RMK A01 T02880188  RH  055%=      5-min Rain = 0
KWE1 150331Z 09006KT 29/19 A3007 RMK A01 T02870188  RH  055%=      5-min Rain = 0
KWE1 150332Z 09005KT 29/19 A3007 RMK A01 T02870188  RH  055%=      5-min Rain = 0
KWE1 150333Z 10006KT 29/19 A3007 RMK A01 T02870188  RH  055%=      5-min Rain = 0
KWE1 150334Z 10007KT 29/19 A3007 RMK A01 T02870188  RH  055%=      5-min Rain = 0
KWE1 150335Z 10007KT 29/19 A3007 RMK A01 T02880188  RH  055%=      5-min Rain = 0
KWE1 150336Z 10006KT 29/19 A3007 RMK A01 T02880188  RH  055%=      5-min Rain = 0
KWE1 150337Z 10006KT 29/19 A3007 RMK A01 T02880188  RH  055%=      5-min Rain = 0
KWE1 150338Z 10007KT 29/19 A3007 RMK A01 T02880188  RH  055%=      5-min Rain = 0
KWE1 150339Z 10008KT 29/19 A3007 RMK A01 T02880189  RH  055%=      5-min Rain = 0
KWE1 150340Z 10007KT 29/19 A3007 RMK A01 T02880189  RH  055%=      5-min Rain = 0
KWE1 150341Z 10007KT 29/19 A3007 RMK A01 T02880189  RH  055%=      5-min Rain = 0
KWE1 150342Z 10008KT 29/19 A3007 RMK A01 T02880190  RH  055%=      5-min Rain = 0
KWE1 150343Z 10007KT 29/19 A3007 RMK A01 T02880191  RH  055%=      5-min Rain = 0
KWE1 150344Z 10008KT 29/19 A3007 RMK A01 T02880191  RH  055%=      5-min Rain = 0
KWE1 150345Z 10008KT 29/19 A3007 RMK A01 T02890191  RH  055%=      5-min Rain = 0
KWE1 150346Z 10007KT 29/19 A3007 RMK A01 T02890191  RH  056%=      5-min Rain = 0
KWE1 150347Z 10008KT 29/19 A3007 RMK A01 T02890192  RH  056%=      5-min Rain = 0
KWE1 150348Z 10008KT 29/19 A3007 RMK A01 T02890192  RH  056%=      5-min Rain = 0
KWE1 150349Z 10008KT 29/19 A3007 RMK A01 T02900192  RH  056%=      5-min Rain = 0
KWE1 150350Z 10008KT 29/19 A3007 RMK A01 T02900192  RH  056%=      5-min Rain = 0
KWE1 150351Z 10008KT 29/19 A3007 RMK A01 T02900192  RH  056%=      5-min Rain = 0
KWE1 150352Z 10009KT 29/19 A3007 RMK A01 T02900193  RH  056%=      5-min Rain = 0
KWE1 150353Z 10008KT 29/19 A3007 RMK A01 T02900192  RH  056%=      5-min Rain = 0
KWE1 150354Z 09008KT 29/19 A3007 RMK A01 T02890193  RH  056%=      5-min Rain = 0
KWE1 150355Z 10008KT 29/19 A3007 RMK A01 T02890193  RH  056%=      5-min Rain = 0
KWE1 150356Z 10007KT 29/19 A3007 RMK A01 T02880193  RH  056%=      5-min Rain = 0
KWE1 150357Z 10007KT 29/19 A3007 RMK A01 T02880193  RH  056%=      5-min Rain = 0
KWE1 150358Z 10007KT 29/19 A3007 RMK A01 T02880193  RH  056%=      5-min Rain = 0
KWE1 150359Z 09007KT 29/19 A3007 RMK A01 T02870192  RH  057%=      5-min Rain = 0
KWE1 150400Z 09005KT 29/19 A3007 RMK A01 T02860192  RH  057%=      5-min Rain = 0
KWE1 150401Z 09006KT 29/19 A3007 RMK A01 T02850192  RH  057%=      5-min Rain = 0
KWE1 150402Z 10006KT 29/19 A3007 RMK A01 T02850192  RH  057%=      5-min Rain = 0
KWE1 150403Z 10006KT 28/19 A3007 RMK A01 T02840192  RH  057%=      5-min Rain = 0
KWE1 150404Z 10006KT 28/19 A3007 RMK A01 T02830191  RH  057%=      5-min Rain = 0
KWE1 150405Z 10006KT 28/19 A3007 RMK A01 T02830191  RH  058%=      5-min Rain = 0
KWE1 150406Z 11006KT 28/19 A3007 RMK A01 T02820191  RH  058%=      5-min Rain = 0
KWE1 150407Z 11006KT 28/19 A3007 RMK A01 T02820191  RH  058%=      5-min Rain = 0
KWE1 150408Z 10006KT 28/19 A3007 RMK A01 T02830191  RH  058%=      5-min Rain = 0
KWE1 150409Z 11006KT 28/19 A3007 RMK A01 T02820191  RH  058%=      5-min Rain = 0
KWE1 150410Z 10007KT 28/19 A3007 RMK A01 T02820191  RH  058%=      5-min Rain = 0
KWE1 150411Z 10006KT 28/19 A3007 RMK A01 T02820191  RH  058%=      5-min Rain = 0
KWE1 150412Z 11007KT 28/19 A3007 RMK A01 T02810191  RH  058%=      5-min Rain = 0
KWE1 150413Z 11007KT 28/19 A3007 RMK A01 T02810191  RH  058%=      5-min Rain = 0
KWE1 150414Z 11007KT 28/19 A3007 RMK A01 T02810191  RH  058%=      5-min Rain = 0
KWE1 150415Z 11006KT 28/19 A3007 RMK A01 T02810190  RH  058%=      5-min Rain = 0
KWE1 150416Z 11007KT 28/19 A3007 RMK A01 T02810191  RH  058%=      5-min Rain = 0
KWE1 150417Z 10006KT 28/19 A3007 RMK A01 T02810191  RH  058%=      5-min Rain = 0
KWE1 150418Z 11006KT 28/19 A3007 RMK A01 T02810191  RH  058%=      5-min Rain = 0
KWE1 150419Z 11006KT 28/19 A3007 RMK A01 T02810191  RH  058%=      5-min Rain = 0
KWE1 150420Z 10006KT 28/19 A3007 RMK A01 T02800191  RH  058%=      5-min Rain = 0
KWE1 150421Z 10006KT 28/19 A3007 RMK A01 T02800192  RH  059%=      5-min Rain = 0
KWE1 150422Z 10006KT 28/19 A3007 RMK A01 T02800192  RH  059%=      5-min Rain = 0
KWE1 150423Z 10006KT 28/19 A3007 RMK A01 T02800192  RH  059%=      5-min Rain = 0
KWE1 150424Z 10007KT 28/19 A3007 RMK A01 T02800192  RH  059%=      5-min Rain = 0
KWE1 150425Z 10008KT 28/19 A3007 RMK A01 T02800192  RH  059%=      5-min Rain = 0
KWE1 150426Z 10008KT 28/19 A3007 RMK A01 T02800193  RH  059%=      5-min Rain = 0
KWE1 150427Z 10008KT 28/19 A3007 RMK A01 T02810193  RH  059%=      5-min Rain = 0
KWE1 150428Z 11008KT 28/19 A3007 RMK A01 T02830194  RH  058%=      5-min Rain = 0
KWE1 150429Z 11009KT 28/19 A3007 RMK A01 T02840194  RH  058%=      5-min Rain = 0
KWE1 150430Z 10008KT 29/19 A3007 RMK A01 T02850194  RH  058%=      5-min Rain = 0
KWE1 150431Z 10009KT 29/19 A3008 RMK A01 T02850194  RH  058%=      5-min Rain = 0
KWE1 150432Z 10009KT 29/20 A3008 RMK A01 T02860195  RH  058%=      5-min Rain = 0
KWE1 150433Z 10010KT 29/19 A3008 RMK A01 T02860194  RH  058%=      5-min Rain = 0
KWE1 150434Z 10011KT 29/20 A3008 RMK A01 T02860195  RH  058%=      5-min Rain = 0
KWE1 150435Z 10010KT 29/20 A3008 RMK A01 T02870195  RH  058%=      5-min Rain = 0
KWE1 150436Z 10009KT 29/20 A3008 RMK A01 T02870195  RH  057%=      5-min Rain = 0
KWE1 150437Z 10009KT 29/20 A3008 RMK A01 T02870195  RH  058%=      5-min Rain = 0
KWE1 150438Z 10008KT 29/20 A3008 RMK A01 T02870195  RH  058%=      5-min Rain = 0
KWE1 150439Z 10008KT 29/20 A3008 RMK A01 T02870195  RH  058%=      5-min Rain = 0
KWE1 150440Z 10009KT 29/20 A3008 RMK A01 T02860195  RH  058%=      5-min Rain = 0
KWE1 150441Z 10008KT 29/20 A3008 RMK A01 T02860195  RH  058%=      5-min Rain = 0
KWE1 150442Z 10008KT 29/20 A3008 RMK A01 T02860195  RH  058%=      5-min Rain = 0
KWE1 150443Z 10007KT 29/20 A3008 RMK A01 T02850195  RH  058%=      5-min Rain = 0
KWE1 150444Z 10007KT 29/20 A3008 RMK A01 T02850195  RH  058%=      5-min Rain = 0
KWE1 150445Z 10007KT 28/20 A3008 RMK A01 T02840195  RH  058%=      5-min Rain = 0
KWE1 150446Z 10007KT 28/19 A3008 RMK A01 T02830194  RH  059%=      5-min Rain = 0
KWE1 150447Z 10007KT 28/19 A3008 RMK A01 T02830194  RH  059%=      5-min Rain = 0
KWE1 150448Z 10007KT 28/19 A3008 RMK A01 T02820194  RH  059%=      5-min Rain = 0
KWE1 150449Z 10006KT 28/19 A3008 RMK A01 T02820194  RH  059%=      5-min Rain = 0
KWE1 150450Z 10006KT 28/20 A3008 RMK A01 T02820195  RH  059%=      5-min Rain = 0
KWE1 150451Z 10006KT 28/20 A3008 RMK A01 T02810195  RH  059%=      5-min Rain = 0
KWE1 150452Z 10006KT 28/19 A3008 RMK A01 T02810194  RH  059%=      5-min Rain = 0
KWE1 150453Z 10006KT 28/19 A3008 RMK A01 T02800194  RH  059%=      5-min Rain = 0
KWE1 150454Z 10005KT 28/19 A3008 RMK A01 T02810194  RH  059%=      5-min Rain = 0
KWE1 150455Z 10006KT 28/19 A3008 RMK A01 T02800194  RH  059%=      5-min Rain = 0
KWE1 150456Z 10006KT 28/19 A3008 RMK A01 T02800194  RH  059%=      5-min Rain = 0
KWE1 150457Z 11006KT 28/19 A3008 RMK A01 T02800194  RH  059%=      5-min Rain = 0
KWE1 150458Z 10005KT 28/19 A3008 RMK A01 T02800194  RH  059%=      5-min Rain = 0
KWE1 150459Z 10006KT 28/19 A3008 RMK A01 T02790193  RH  059%=      5-min Rain = 0

Page generated in 0.1212 seconds.